<?xml version="1.0" encoding="UTF-8" standalone="no" ?>
<gpx xmlns="http://www.topografix.com/GPX/1/1" xmlns:xsi="http://www.w3.org/2001/XMLSchema-instance" xsi:schemaLocation="http://www.topografix.com/GPX/1/1 http://www.topografix.com/GPX/1/1/gpx.xsd" version="1.1" creator="VisuGPX - https://www.visugpx.com">
  <metadata>
    <name>Pic Ouest du Combeynot, face Nord</name>
    <desc><![CDATA[Sortie MSR du 8 mai au col du Lautaret.]]></desc>
  </metadata>
  <trk>
    <name><![CDATA[combeynot]]></name>
    <trkseg>
      <trkpt lat="45.03333" lon="6.4031">
        <ele>1969.4</ele>
        <time>2013-05-08T05:03:23Z</time>
      </trkpt>
      <trkpt lat="45.03334" lon="6.40323">
        <ele>1967.8</ele>
        <time>2013-05-08T05:05:04Z</time>
      </trkpt>
      <trkpt lat="45.03329" lon="6.40313">
        <ele>1967.1</ele>
        <time>2013-05-08T05:08:52Z</time>
      </trkpt>
      <trkpt lat="45.03322" lon="6.40319">
        <ele>1966.4</ele>
        <time>2013-05-08T05:16:55Z</time>
      </trkpt>
      <trkpt lat="45.03314" lon="6.40325">
        <ele>1966.5</ele>
        <time>2013-05-08T05:17:03Z</time>
      </trkpt>
      <trkpt lat="45.03306" lon="6.40327">
        <ele>1968</ele>
        <time>2013-05-08T05:17:10Z</time>
      </trkpt>
      <trkpt lat="45.03298" lon="6.40325">
        <ele>1967.2</ele>
        <time>2013-05-08T05:17:18Z</time>
      </trkpt>
      <trkpt lat="45.03293" lon="6.40335">
        <ele>1968.5</ele>
        <time>2013-05-08T05:18:22Z</time>
      </trkpt>
      <trkpt lat="45.03289" lon="6.40326">
        <ele>1966.1</ele>
        <time>2013-05-08T05:19:20Z</time>
      </trkpt>
      <trkpt lat="45.0328" lon="6.40326">
        <ele>1966.6</ele>
        <time>2013-05-08T05:20:06Z</time>
      </trkpt>
      <trkpt lat="45.03272" lon="6.40327">
        <ele>1966</ele>
        <time>2013-05-08T05:20:16Z</time>
      </trkpt>
      <trkpt lat="45.03263" lon="6.4033">
        <ele>1967.5</ele>
        <time>2013-05-08T05:20:53Z</time>
      </trkpt>
      <trkpt lat="45.03256" lon="6.40336">
        <ele>1970.3</ele>
        <time>2013-05-08T05:21:03Z</time>
      </trkpt>
      <trkpt lat="45.0325" lon="6.40344">
        <ele>1972</ele>
        <time>2013-05-08T05:21:11Z</time>
      </trkpt>
      <trkpt lat="45.03244" lon="6.40353">
        <ele>1973.6</ele>
        <time>2013-05-08T05:21:19Z</time>
      </trkpt>
      <trkpt lat="45.0324" lon="6.40363">
        <ele>1974.8</ele>
        <time>2013-05-08T05:21:27Z</time>
      </trkpt>
      <trkpt lat="45.03234" lon="6.40371">
        <ele>1977.9</ele>
        <time>2013-05-08T05:21:34Z</time>
      </trkpt>
      <trkpt lat="45.03227" lon="6.4038">
        <ele>1978.7</ele>
        <time>2013-05-08T05:21:42Z</time>
      </trkpt>
      <trkpt lat="45.03219" lon="6.40384">
        <ele>1981.3</ele>
        <time>2013-05-08T05:21:51Z</time>
      </trkpt>
      <trkpt lat="45.03211" lon="6.40385">
        <ele>1981</ele>
        <time>2013-05-08T05:22:00Z</time>
      </trkpt>
      <trkpt lat="45.03203" lon="6.40385">
        <ele>1981.4</ele>
        <time>2013-05-08T05:22:07Z</time>
      </trkpt>
      <trkpt lat="45.03195" lon="6.40385">
        <ele>1980.6</ele>
        <time>2013-05-08T05:22:13Z</time>
      </trkpt>
      <trkpt lat="45.03187" lon="6.40385">
        <ele>1980.1</ele>
        <time>2013-05-08T05:22:19Z</time>
      </trkpt>
      <trkpt lat="45.03179" lon="6.40385">
        <ele>1979.6</ele>
        <time>2013-05-08T05:22:25Z</time>
      </trkpt>
      <trkpt lat="45.0317" lon="6.40385">
        <ele>1979.1</ele>
        <time>2013-05-08T05:22:31Z</time>
      </trkpt>
      <trkpt lat="45.03163" lon="6.40385">
        <ele>1979.8</ele>
        <time>2013-05-08T05:22:38Z</time>
      </trkpt>
      <trkpt lat="45.03154" lon="6.40386">
        <ele>1979.1</ele>
        <time>2013-05-08T05:22:45Z</time>
      </trkpt>
      <trkpt lat="45.03148" lon="6.40393">
        <ele>1981.4</ele>
        <time>2013-05-08T05:22:53Z</time>
      </trkpt>
      <trkpt lat="45.03144" lon="6.40403">
        <ele>1983.1</ele>
        <time>2013-05-08T05:23:01Z</time>
      </trkpt>
      <trkpt lat="45.03139" lon="6.40414">
        <ele>1982.9</ele>
        <time>2013-05-08T05:23:09Z</time>
      </trkpt>
      <trkpt lat="45.03134" lon="6.40423">
        <ele>1985.7</ele>
        <time>2013-05-08T05:23:18Z</time>
      </trkpt>
      <trkpt lat="45.03128" lon="6.40432">
        <ele>1987.1</ele>
        <time>2013-05-08T05:23:27Z</time>
      </trkpt>
      <trkpt lat="45.03121" lon="6.40439">
        <ele>1989.2</ele>
        <time>2013-05-08T05:23:37Z</time>
      </trkpt>
      <trkpt lat="45.03115" lon="6.40449">
        <ele>1989.9</ele>
        <time>2013-05-08T05:23:48Z</time>
      </trkpt>
      <trkpt lat="45.03118" lon="6.40438">
        <ele>1989.3</ele>
        <time>2013-05-08T05:24:06Z</time>
      </trkpt>
      <trkpt lat="45.03112" lon="6.40446">
        <ele>1989.5</ele>
        <time>2013-05-08T05:24:26Z</time>
      </trkpt>
      <trkpt lat="45.03109" lon="6.40458">
        <ele>1991</ele>
        <time>2013-05-08T05:24:38Z</time>
      </trkpt>
      <trkpt lat="45.03103" lon="6.40466">
        <ele>1992.5</ele>
        <time>2013-05-08T05:24:46Z</time>
      </trkpt>
      <trkpt lat="45.03099" lon="6.40476">
        <ele>1993.9</ele>
        <time>2013-05-08T05:25:01Z</time>
      </trkpt>
      <trkpt lat="45.03092" lon="6.40485">
        <ele>1995</ele>
        <time>2013-05-08T05:25:09Z</time>
      </trkpt>
      <trkpt lat="45.03088" lon="6.40495">
        <ele>1995.4</ele>
        <time>2013-05-08T05:25:18Z</time>
      </trkpt>
      <trkpt lat="45.03085" lon="6.40507">
        <ele>1996.7</ele>
        <time>2013-05-08T05:25:28Z</time>
      </trkpt>
      <trkpt lat="45.03082" lon="6.40518">
        <ele>1997.1</ele>
        <time>2013-05-08T05:25:37Z</time>
      </trkpt>
      <trkpt lat="45.03079" lon="6.40528">
        <ele>1999.4</ele>
        <time>2013-05-08T05:25:47Z</time>
      </trkpt>
      <trkpt lat="45.03073" lon="6.40538">
        <ele>2000.5</ele>
        <time>2013-05-08T05:25:56Z</time>
      </trkpt>
      <trkpt lat="45.03067" lon="6.40546">
        <ele>2001.8</ele>
        <time>2013-05-08T05:26:06Z</time>
      </trkpt>
      <trkpt lat="45.03061" lon="6.40553">
        <ele>2002.6</ele>
        <time>2013-05-08T05:26:15Z</time>
      </trkpt>
      <trkpt lat="45.03055" lon="6.40563">
        <ele>2002.8</ele>
        <time>2013-05-08T05:26:24Z</time>
      </trkpt>
      <trkpt lat="45.0305" lon="6.40572">
        <ele>2003</ele>
        <time>2013-05-08T05:26:33Z</time>
      </trkpt>
      <trkpt lat="45.03043" lon="6.4058">
        <ele>2004.1</ele>
        <time>2013-05-08T05:26:42Z</time>
      </trkpt>
      <trkpt lat="45.03037" lon="6.40588">
        <ele>2005.5</ele>
        <time>2013-05-08T05:26:52Z</time>
      </trkpt>
      <trkpt lat="45.03031" lon="6.40596">
        <ele>2006</ele>
        <time>2013-05-08T05:27:01Z</time>
      </trkpt>
      <trkpt lat="45.03024" lon="6.40605">
        <ele>2006.7</ele>
        <time>2013-05-08T05:27:09Z</time>
      </trkpt>
      <trkpt lat="45.03019" lon="6.40614">
        <ele>2006.1</ele>
        <time>2013-05-08T05:27:17Z</time>
      </trkpt>
      <trkpt lat="45.03013" lon="6.40623">
        <ele>2007.6</ele>
        <time>2013-05-08T05:27:26Z</time>
      </trkpt>
      <trkpt lat="45.03007" lon="6.40632">
        <ele>2006.2</ele>
        <time>2013-05-08T05:27:34Z</time>
      </trkpt>
      <trkpt lat="45.03001" lon="6.4064">
        <ele>2006.9</ele>
        <time>2013-05-08T05:27:42Z</time>
      </trkpt>
      <trkpt lat="45.02995" lon="6.40648">
        <ele>2006.5</ele>
        <time>2013-05-08T05:27:51Z</time>
      </trkpt>
      <trkpt lat="45.02989" lon="6.40657">
        <ele>2004.6</ele>
        <time>2013-05-08T05:28:00Z</time>
      </trkpt>
      <trkpt lat="45.02982" lon="6.40663">
        <ele>2005.3</ele>
        <time>2013-05-08T05:28:08Z</time>
      </trkpt>
      <trkpt lat="45.02976" lon="6.40671">
        <ele>2004.7</ele>
        <time>2013-05-08T05:28:16Z</time>
      </trkpt>
      <trkpt lat="45.02969" lon="6.40678">
        <ele>2004</ele>
        <time>2013-05-08T05:28:24Z</time>
      </trkpt>
      <trkpt lat="45.02963" lon="6.40684">
        <ele>2004.2</ele>
        <time>2013-05-08T05:28:31Z</time>
      </trkpt>
      <trkpt lat="45.02956" lon="6.40691">
        <ele>2004.7</ele>
        <time>2013-05-08T05:28:39Z</time>
      </trkpt>
      <trkpt lat="45.02949" lon="6.40698">
        <ele>2004</ele>
        <time>2013-05-08T05:28:48Z</time>
      </trkpt>
      <trkpt lat="45.02942" lon="6.40705">
        <ele>2003.7</ele>
        <time>2013-05-08T05:28:56Z</time>
      </trkpt>
      <trkpt lat="45.02935" lon="6.40713">
        <ele>2004.3</ele>
        <time>2013-05-08T05:29:03Z</time>
      </trkpt>
      <trkpt lat="45.02931" lon="6.40723">
        <ele>2004.5</ele>
        <time>2013-05-08T05:29:12Z</time>
      </trkpt>
      <trkpt lat="45.02925" lon="6.40731">
        <ele>2004.7</ele>
        <time>2013-05-08T05:29:22Z</time>
      </trkpt>
      <trkpt lat="45.02917" lon="6.40737">
        <ele>2006.4</ele>
        <time>2013-05-08T05:29:32Z</time>
      </trkpt>
      <trkpt lat="45.0291" lon="6.40743">
        <ele>2007.3</ele>
        <time>2013-05-08T05:29:40Z</time>
      </trkpt>
      <trkpt lat="45.02903" lon="6.4075">
        <ele>2007.6</ele>
        <time>2013-05-08T05:29:48Z</time>
      </trkpt>
      <trkpt lat="45.02895" lon="6.40757">
        <ele>2009.1</ele>
        <time>2013-05-08T05:29:58Z</time>
      </trkpt>
      <trkpt lat="45.02888" lon="6.40762">
        <ele>2009.8</ele>
        <time>2013-05-08T05:30:11Z</time>
      </trkpt>
      <trkpt lat="45.0288" lon="6.40768">
        <ele>2011.6</ele>
        <time>2013-05-08T05:30:27Z</time>
      </trkpt>
      <trkpt lat="45.02873" lon="6.40775">
        <ele>2012.7</ele>
        <time>2013-05-08T05:30:38Z</time>
      </trkpt>
      <trkpt lat="45.02867" lon="6.40782">
        <ele>2014.1</ele>
        <time>2013-05-08T05:30:46Z</time>
      </trkpt>
      <trkpt lat="45.0286" lon="6.40791">
        <ele>2014.7</ele>
        <time>2013-05-08T05:30:55Z</time>
      </trkpt>
      <trkpt lat="45.02853" lon="6.40797">
        <ele>2016.2</ele>
        <time>2013-05-08T05:31:04Z</time>
      </trkpt>
      <trkpt lat="45.02845" lon="6.40802">
        <ele>2018.3</ele>
        <time>2013-05-08T05:31:12Z</time>
      </trkpt>
      <trkpt lat="45.02842" lon="6.40813">
        <ele>2022.1</ele>
        <time>2013-05-08T05:31:32Z</time>
      </trkpt>
      <trkpt lat="45.02846" lon="6.40824">
        <ele>2025.2</ele>
        <time>2013-05-08T05:31:46Z</time>
      </trkpt>
      <trkpt lat="45.02845" lon="6.40836">
        <ele>2028.2</ele>
        <time>2013-05-08T05:32:02Z</time>
      </trkpt>
      <trkpt lat="45.02841" lon="6.40847">
        <ele>2030.4</ele>
        <time>2013-05-08T05:32:18Z</time>
      </trkpt>
      <trkpt lat="45.02839" lon="6.40858">
        <ele>2033.4</ele>
        <time>2013-05-08T05:32:33Z</time>
      </trkpt>
      <trkpt lat="45.02839" lon="6.40871">
        <ele>2034.9</ele>
        <time>2013-05-08T05:32:44Z</time>
      </trkpt>
      <trkpt lat="45.02841" lon="6.40883">
        <ele>2037.2</ele>
        <time>2013-05-08T05:32:57Z</time>
      </trkpt>
      <trkpt lat="45.02841" lon="6.40895">
        <ele>2039.5</ele>
        <time>2013-05-08T05:33:09Z</time>
      </trkpt>
      <trkpt lat="45.02838" lon="6.40906">
        <ele>2042.8</ele>
        <time>2013-05-08T05:33:24Z</time>
      </trkpt>
      <trkpt lat="45.02839" lon="6.40918">
        <ele>2045.4</ele>
        <time>2013-05-08T05:33:39Z</time>
      </trkpt>
      <trkpt lat="45.02838" lon="6.4093">
        <ele>2048.1</ele>
        <time>2013-05-08T05:33:53Z</time>
      </trkpt>
      <trkpt lat="45.02833" lon="6.40939">
        <ele>2049.1</ele>
        <time>2013-05-08T05:34:02Z</time>
      </trkpt>
      <trkpt lat="45.0283" lon="6.4095">
        <ele>2052.3</ele>
        <time>2013-05-08T05:34:16Z</time>
      </trkpt>
      <trkpt lat="45.02823" lon="6.40959">
        <ele>2055.3</ele>
        <time>2013-05-08T05:34:28Z</time>
      </trkpt>
      <trkpt lat="45.0282" lon="6.4097">
        <ele>2056.6</ele>
        <time>2013-05-08T05:34:44Z</time>
      </trkpt>
      <trkpt lat="45.02817" lon="6.40982">
        <ele>2060.2</ele>
        <time>2013-05-08T05:35:01Z</time>
      </trkpt>
      <trkpt lat="45.02816" lon="6.40994">
        <ele>2063.1</ele>
        <time>2013-05-08T05:35:16Z</time>
      </trkpt>
      <trkpt lat="45.02817" lon="6.41007">
        <ele>2066.7</ele>
        <time>2013-05-08T05:35:31Z</time>
      </trkpt>
      <trkpt lat="45.02813" lon="6.41017">
        <ele>2068.9</ele>
        <time>2013-05-08T05:35:45Z</time>
      </trkpt>
      <trkpt lat="45.02811" lon="6.41029">
        <ele>2071.4</ele>
        <time>2013-05-08T05:35:59Z</time>
      </trkpt>
      <trkpt lat="45.02807" lon="6.41039">
        <ele>2075</ele>
        <time>2013-05-08T05:36:14Z</time>
      </trkpt>
      <trkpt lat="45.02803" lon="6.41051">
        <ele>2077.6</ele>
        <time>2013-05-08T05:36:31Z</time>
      </trkpt>
      <trkpt lat="45.02804" lon="6.41063">
        <ele>2081.4</ele>
        <time>2013-05-08T05:36:47Z</time>
      </trkpt>
      <trkpt lat="45.02801" lon="6.41075">
        <ele>2084.2</ele>
        <time>2013-05-08T05:37:03Z</time>
      </trkpt>
      <trkpt lat="45.02802" lon="6.41086">
        <ele>2086.7</ele>
        <time>2013-05-08T05:37:18Z</time>
      </trkpt>
      <trkpt lat="45.028" lon="6.41098">
        <ele>2091</ele>
        <time>2013-05-08T05:37:33Z</time>
      </trkpt>
      <trkpt lat="45.02797" lon="6.4111">
        <ele>2093.4</ele>
        <time>2013-05-08T05:37:48Z</time>
      </trkpt>
      <trkpt lat="45.02792" lon="6.4112">
        <ele>2096.2</ele>
        <time>2013-05-08T05:38:01Z</time>
      </trkpt>
      <trkpt lat="45.02789" lon="6.41132">
        <ele>2100.5</ele>
        <time>2013-05-08T05:38:17Z</time>
      </trkpt>
      <trkpt lat="45.02783" lon="6.4114">
        <ele>2101.9</ele>
        <time>2013-05-08T05:38:31Z</time>
      </trkpt>
      <trkpt lat="45.02775" lon="6.41135">
        <ele>2104.9</ele>
        <time>2013-05-08T05:38:47Z</time>
      </trkpt>
      <trkpt lat="45.02767" lon="6.4114">
        <ele>2107</ele>
        <time>2013-05-08T05:43:36Z</time>
      </trkpt>
      <trkpt lat="45.0276" lon="6.41148">
        <ele>2111.5</ele>
        <time>2013-05-08T05:43:57Z</time>
      </trkpt>
      <trkpt lat="45.02752" lon="6.41154">
        <ele>2116.5</ele>
        <time>2013-05-08T05:44:17Z</time>
      </trkpt>
      <trkpt lat="45.02745" lon="6.4116">
        <ele>2120.3</ele>
        <time>2013-05-08T05:44:35Z</time>
      </trkpt>
      <trkpt lat="45.02738" lon="6.41168">
        <ele>2123</ele>
        <time>2013-05-08T05:44:53Z</time>
      </trkpt>
      <trkpt lat="45.02729" lon="6.41164">
        <ele>2126.9</ele>
        <time>2013-05-08T05:45:09Z</time>
      </trkpt>
      <trkpt lat="45.02721" lon="6.4116">
        <ele>2131.5</ele>
        <time>2013-05-08T05:45:25Z</time>
      </trkpt>
      <trkpt lat="45.02713" lon="6.41156">
        <ele>2133.5</ele>
        <time>2013-05-08T05:45:41Z</time>
      </trkpt>
      <trkpt lat="45.02705" lon="6.41152">
        <ele>2136.5</ele>
        <time>2013-05-08T05:45:52Z</time>
      </trkpt>
      <trkpt lat="45.02703" lon="6.41164">
        <ele>2138.9</ele>
        <time>2013-05-08T05:46:11Z</time>
      </trkpt>
      <trkpt lat="45.02701" lon="6.41176">
        <ele>2142.7</ele>
        <time>2013-05-08T05:46:28Z</time>
      </trkpt>
      <trkpt lat="45.02697" lon="6.41187">
        <ele>2146.4</ele>
        <time>2013-05-08T05:46:45Z</time>
      </trkpt>
      <trkpt lat="45.02693" lon="6.41198">
        <ele>2149</ele>
        <time>2013-05-08T05:47:00Z</time>
      </trkpt>
      <trkpt lat="45.02691" lon="6.4121">
        <ele>2151.3</ele>
        <time>2013-05-08T05:47:13Z</time>
      </trkpt>
      <trkpt lat="45.02689" lon="6.41222">
        <ele>2154.4</ele>
        <time>2013-05-08T05:47:26Z</time>
      </trkpt>
      <trkpt lat="45.02687" lon="6.41234">
        <ele>2156</ele>
        <time>2013-05-08T05:47:40Z</time>
      </trkpt>
      <trkpt lat="45.02684" lon="6.41245">
        <ele>2159.2</ele>
        <time>2013-05-08T05:47:54Z</time>
      </trkpt>
      <trkpt lat="45.02679" lon="6.41256">
        <ele>2162.2</ele>
        <time>2013-05-08T05:48:08Z</time>
      </trkpt>
      <trkpt lat="45.02676" lon="6.41267">
        <ele>2164.7</ele>
        <time>2013-05-08T05:48:22Z</time>
      </trkpt>
      <trkpt lat="45.02672" lon="6.41278">
        <ele>2167.9</ele>
        <time>2013-05-08T05:48:34Z</time>
      </trkpt>
      <trkpt lat="45.02669" lon="6.4129">
        <ele>2170.8</ele>
        <time>2013-05-08T05:48:48Z</time>
      </trkpt>
      <trkpt lat="45.02665" lon="6.41301">
        <ele>2173.7</ele>
        <time>2013-05-08T05:49:04Z</time>
      </trkpt>
      <trkpt lat="45.02662" lon="6.41312">
        <ele>2178.1</ele>
        <time>2013-05-08T05:49:19Z</time>
      </trkpt>
      <trkpt lat="45.02657" lon="6.41323">
        <ele>2180.9</ele>
        <time>2013-05-08T05:49:32Z</time>
      </trkpt>
      <trkpt lat="45.02651" lon="6.41332">
        <ele>2184.5</ele>
        <time>2013-05-08T05:49:45Z</time>
      </trkpt>
      <trkpt lat="45.02646" lon="6.41341">
        <ele>2187.5</ele>
        <time>2013-05-08T05:50:00Z</time>
      </trkpt>
      <trkpt lat="45.02639" lon="6.41348">
        <ele>2190.3</ele>
        <time>2013-05-08T05:50:11Z</time>
      </trkpt>
      <trkpt lat="45.02634" lon="6.41358">
        <ele>2194</ele>
        <time>2013-05-08T05:50:27Z</time>
      </trkpt>
      <trkpt lat="45.02629" lon="6.41369">
        <ele>2197.8</ele>
        <time>2013-05-08T05:50:43Z</time>
      </trkpt>
      <trkpt lat="45.02622" lon="6.41361">
        <ele>2201.4</ele>
        <time>2013-05-08T05:51:01Z</time>
      </trkpt>
      <trkpt lat="45.02619" lon="6.41349">
        <ele>2205.4</ele>
        <time>2013-05-08T05:51:19Z</time>
      </trkpt>
      <trkpt lat="45.02614" lon="6.41339">
        <ele>2207.7</ele>
        <time>2013-05-08T05:51:32Z</time>
      </trkpt>
      <trkpt lat="45.02609" lon="6.4133">
        <ele>2210.6</ele>
        <time>2013-05-08T05:51:45Z</time>
      </trkpt>
      <trkpt lat="45.02603" lon="6.4132">
        <ele>2212.7</ele>
        <time>2013-05-08T05:51:57Z</time>
      </trkpt>
      <trkpt lat="45.02598" lon="6.4131">
        <ele>2216.5</ele>
        <time>2013-05-08T05:52:14Z</time>
      </trkpt>
      <trkpt lat="45.02593" lon="6.413">
        <ele>2217.5</ele>
        <time>2013-05-08T05:52:27Z</time>
      </trkpt>
      <trkpt lat="45.02587" lon="6.41292">
        <ele>2220.4</ele>
        <time>2013-05-08T05:52:37Z</time>
      </trkpt>
      <trkpt lat="45.02581" lon="6.41283">
        <ele>2222.5</ele>
        <time>2013-05-08T05:52:49Z</time>
      </trkpt>
      <trkpt lat="45.02575" lon="6.41274">
        <ele>2225.2</ele>
        <time>2013-05-08T05:53:02Z</time>
      </trkpt>
      <trkpt lat="45.0257" lon="6.41265">
        <ele>2227.8</ele>
        <time>2013-05-08T05:53:17Z</time>
      </trkpt>
      <trkpt lat="45.0257" lon="6.41253">
        <ele>2231.4</ele>
        <time>2013-05-08T05:53:35Z</time>
      </trkpt>
      <trkpt lat="45.02563" lon="6.41246">
        <ele>2233.4</ele>
        <time>2013-05-08T05:53:45Z</time>
      </trkpt>
      <trkpt lat="45.02557" lon="6.41236">
        <ele>2237.1</ele>
        <time>2013-05-08T05:53:58Z</time>
      </trkpt>
      <trkpt lat="45.02552" lon="6.41227">
        <ele>2239.4</ele>
        <time>2013-05-08T05:54:11Z</time>
      </trkpt>
      <trkpt lat="45.02545" lon="6.4122">
        <ele>2241.1</ele>
        <time>2013-05-08T05:54:20Z</time>
      </trkpt>
      <trkpt lat="45.0254" lon="6.4121">
        <ele>2244</ele>
        <time>2013-05-08T05:54:34Z</time>
      </trkpt>
      <trkpt lat="45.02537" lon="6.41198">
        <ele>2246.9</ele>
        <time>2013-05-08T05:54:49Z</time>
      </trkpt>
      <trkpt lat="45.02535" lon="6.41185">
        <ele>2249.8</ele>
        <time>2013-05-08T05:55:01Z</time>
      </trkpt>
      <trkpt lat="45.0253" lon="6.41175">
        <ele>2253.6</ele>
        <time>2013-05-08T05:55:15Z</time>
      </trkpt>
      <trkpt lat="45.02524" lon="6.41166">
        <ele>2256</ele>
        <time>2013-05-08T05:55:36Z</time>
      </trkpt>
      <trkpt lat="45.02516" lon="6.41162">
        <ele>2258.1</ele>
        <time>2013-05-08T05:56:07Z</time>
      </trkpt>
      <trkpt lat="45.02508" lon="6.41168">
        <ele>2265.4</ele>
        <time>2013-05-08T05:56:43Z</time>
      </trkpt>
      <trkpt lat="45.02502" lon="6.41177">
        <ele>2269.7</ele>
        <time>2013-05-08T05:56:59Z</time>
      </trkpt>
      <trkpt lat="45.02497" lon="6.41187">
        <ele>2271.5</ele>
        <time>2013-05-08T05:57:13Z</time>
      </trkpt>
      <trkpt lat="45.02496" lon="6.412">
        <ele>2275.8</ele>
        <time>2013-05-08T05:57:30Z</time>
      </trkpt>
      <trkpt lat="45.02491" lon="6.4121">
        <ele>2279.9</ele>
        <time>2013-05-08T05:57:46Z</time>
      </trkpt>
      <trkpt lat="45.02491" lon="6.41222">
        <ele>2284.1</ele>
        <time>2013-05-08T05:58:04Z</time>
      </trkpt>
      <trkpt lat="45.02489" lon="6.41234">
        <ele>2287.9</ele>
        <time>2013-05-08T05:58:20Z</time>
      </trkpt>
      <trkpt lat="45.02482" lon="6.41242">
        <ele>2291.9</ele>
        <time>2013-05-08T05:58:34Z</time>
      </trkpt>
      <trkpt lat="45.02475" lon="6.4125">
        <ele>2294.8</ele>
        <time>2013-05-08T05:58:47Z</time>
      </trkpt>
      <trkpt lat="45.02471" lon="6.4126">
        <ele>2297.7</ele>
        <time>2013-05-08T05:59:01Z</time>
      </trkpt>
      <trkpt lat="45.02468" lon="6.41272">
        <ele>2301.3</ele>
        <time>2013-05-08T05:59:18Z</time>
      </trkpt>
      <trkpt lat="45.02461" lon="6.4128">
        <ele>2304.5</ele>
        <time>2013-05-08T05:59:34Z</time>
      </trkpt>
      <trkpt lat="45.02456" lon="6.4129">
        <ele>2307.8</ele>
        <time>2013-05-08T05:59:48Z</time>
      </trkpt>
      <trkpt lat="45.02452" lon="6.41301">
        <ele>2311.4</ele>
        <time>2013-05-08T06:00:04Z</time>
      </trkpt>
      <trkpt lat="45.02444" lon="6.41308">
        <ele>2314.7</ele>
        <time>2013-05-08T06:00:18Z</time>
      </trkpt>
      <trkpt lat="45.02436" lon="6.41306">
        <ele>2321.9</ele>
        <time>2013-05-08T06:00:58Z</time>
      </trkpt>
      <trkpt lat="45.0243" lon="6.41296">
        <ele>2325.8</ele>
        <time>2013-05-08T06:01:17Z</time>
      </trkpt>
      <trkpt lat="45.02423" lon="6.4129">
        <ele>2328.7</ele>
        <time>2013-05-08T06:01:31Z</time>
      </trkpt>
      <trkpt lat="45.02416" lon="6.41285">
        <ele>2331.3</ele>
        <time>2013-05-08T06:01:41Z</time>
      </trkpt>
      <trkpt lat="45.02409" lon="6.41278">
        <ele>2333.3</ele>
        <time>2013-05-08T06:01:50Z</time>
      </trkpt>
      <trkpt lat="45.02402" lon="6.41272">
        <ele>2336.1</ele>
        <time>2013-05-08T06:02:06Z</time>
      </trkpt>
      <trkpt lat="45.02395" lon="6.41267">
        <ele>2338.2</ele>
        <time>2013-05-08T06:02:13Z</time>
      </trkpt>
      <trkpt lat="45.0239" lon="6.41257">
        <ele>2342.6</ele>
        <time>2013-05-08T06:02:32Z</time>
      </trkpt>
      <trkpt lat="45.02386" lon="6.41246">
        <ele>2347.8</ele>
        <time>2013-05-08T06:02:57Z</time>
      </trkpt>
      <trkpt lat="45.0238" lon="6.41238">
        <ele>2350.7</ele>
        <time>2013-05-08T06:03:11Z</time>
      </trkpt>
      <trkpt lat="45.02373" lon="6.41231">
        <ele>2352.6</ele>
        <time>2013-05-08T06:03:21Z</time>
      </trkpt>
      <trkpt lat="45.02366" lon="6.41222">
        <ele>2354.4</ele>
        <time>2013-05-08T06:03:33Z</time>
      </trkpt>
      <trkpt lat="45.02364" lon="6.41234">
        <ele>2360.4</ele>
        <time>2013-05-08T06:04:05Z</time>
      </trkpt>
      <trkpt lat="45.0237" lon="6.41244">
        <ele>2363.1</ele>
        <time>2013-05-08T06:04:16Z</time>
      </trkpt>
      <trkpt lat="45.02369" lon="6.41256">
        <ele>2365.6</ele>
        <time>2013-05-08T06:04:31Z</time>
      </trkpt>
      <trkpt lat="45.02363" lon="6.41266">
        <ele>2367.5</ele>
        <time>2013-05-08T06:04:45Z</time>
      </trkpt>
      <trkpt lat="45.02362" lon="6.41277">
        <ele>2371.5</ele>
        <time>2013-05-08T06:04:58Z</time>
      </trkpt>
      <trkpt lat="45.02359" lon="6.41289">
        <ele>2374.9</ele>
        <time>2013-05-08T06:05:15Z</time>
      </trkpt>
      <trkpt lat="45.02357" lon="6.41301">
        <ele>2378.2</ele>
        <time>2013-05-08T06:05:33Z</time>
      </trkpt>
      <trkpt lat="45.02359" lon="6.41313">
        <ele>2382.1</ele>
        <time>2013-05-08T06:05:46Z</time>
      </trkpt>
      <trkpt lat="45.02359" lon="6.41326">
        <ele>2385.4</ele>
        <time>2013-05-08T06:06:04Z</time>
      </trkpt>
      <trkpt lat="45.0235" lon="6.41324">
        <ele>2394.8</ele>
        <time>2013-05-08T06:06:56Z</time>
      </trkpt>
      <trkpt lat="45.02343" lon="6.41319">
        <ele>2396.4</ele>
        <time>2013-05-08T06:07:03Z</time>
      </trkpt>
      <trkpt lat="45.02335" lon="6.41314">
        <ele>2398</ele>
        <time>2013-05-08T06:07:12Z</time>
      </trkpt>
      <trkpt lat="45.02329" lon="6.41305">
        <ele>2400.9</ele>
        <time>2013-05-08T06:07:25Z</time>
      </trkpt>
      <trkpt lat="45.02322" lon="6.413">
        <ele>2401.6</ele>
        <time>2013-05-08T06:07:32Z</time>
      </trkpt>
      <trkpt lat="45.02315" lon="6.41294">
        <ele>2403.5</ele>
        <time>2013-05-08T06:07:39Z</time>
      </trkpt>
      <trkpt lat="45.02308" lon="6.41288">
        <ele>2404.9</ele>
        <time>2013-05-08T06:07:47Z</time>
      </trkpt>
      <trkpt lat="45.02303" lon="6.41278">
        <ele>2410</ele>
        <time>2013-05-08T06:08:18Z</time>
      </trkpt>
      <trkpt lat="45.02296" lon="6.41271">
        <ele>2413.1</ele>
        <time>2013-05-08T06:08:32Z</time>
      </trkpt>
      <trkpt lat="45.02289" lon="6.41263">
        <ele>2415.3</ele>
        <time>2013-05-08T06:08:47Z</time>
      </trkpt>
      <trkpt lat="45.02284" lon="6.41254">
        <ele>2420.6</ele>
        <time>2013-05-08T06:09:05Z</time>
      </trkpt>
      <trkpt lat="45.02276" lon="6.41247">
        <ele>2421.8</ele>
        <time>2013-05-08T06:09:14Z</time>
      </trkpt>
      <trkpt lat="45.02271" lon="6.41237">
        <ele>2425.7</ele>
        <time>2013-05-08T06:09:32Z</time>
      </trkpt>
      <trkpt lat="45.02266" lon="6.41227">
        <ele>2428.5</ele>
        <time>2013-05-08T06:09:51Z</time>
      </trkpt>
      <trkpt lat="45.02266" lon="6.41239">
        <ele>2434.1</ele>
        <time>2013-05-08T06:10:34Z</time>
      </trkpt>
      <trkpt lat="45.02268" lon="6.41251">
        <ele>2438.2</ele>
        <time>2013-05-08T06:10:49Z</time>
      </trkpt>
      <trkpt lat="45.02264" lon="6.41262">
        <ele>2442.9</ele>
        <time>2013-05-08T06:11:10Z</time>
      </trkpt>
      <trkpt lat="45.0226" lon="6.41272">
        <ele>2445.3</ele>
        <time>2013-05-08T06:11:41Z</time>
      </trkpt>
      <trkpt lat="45.02256" lon="6.41283">
        <ele>2450</ele>
        <time>2013-05-08T06:11:57Z</time>
      </trkpt>
      <trkpt lat="45.0225" lon="6.41291">
        <ele>2452.1</ele>
        <time>2013-05-08T06:12:09Z</time>
      </trkpt>
      <trkpt lat="45.02251" lon="6.41302">
        <ele>2454.6</ele>
        <time>2013-05-08T06:12:23Z</time>
      </trkpt>
      <trkpt lat="45.02247" lon="6.41313">
        <ele>2459.5</ele>
        <time>2013-05-08T06:12:43Z</time>
      </trkpt>
      <trkpt lat="45.0225" lon="6.41325">
        <ele>2461.1</ele>
        <time>2013-05-08T06:12:57Z</time>
      </trkpt>
      <trkpt lat="45.02243" lon="6.41318">
        <ele>2464.9</ele>
        <time>2013-05-08T06:13:17Z</time>
      </trkpt>
      <trkpt lat="45.0224" lon="6.41307">
        <ele>2471.8</ele>
        <time>2013-05-08T06:13:56Z</time>
      </trkpt>
      <trkpt lat="45.02234" lon="6.41299">
        <ele>2474.6</ele>
        <time>2013-05-08T06:14:07Z</time>
      </trkpt>
      <trkpt lat="45.02229" lon="6.41288">
        <ele>2478.4</ele>
        <time>2013-05-08T06:14:26Z</time>
      </trkpt>
      <trkpt lat="45.02221" lon="6.41282">
        <ele>2480</ele>
        <time>2013-05-08T06:14:35Z</time>
      </trkpt>
      <trkpt lat="45.02217" lon="6.41271">
        <ele>2484.6</ele>
        <time>2013-05-08T06:14:56Z</time>
      </trkpt>
      <trkpt lat="45.02213" lon="6.41261">
        <ele>2487.7</ele>
        <time>2013-05-08T06:15:13Z</time>
      </trkpt>
      <trkpt lat="45.02207" lon="6.41253">
        <ele>2489.3</ele>
        <time>2013-05-08T06:15:24Z</time>
      </trkpt>
      <trkpt lat="45.022" lon="6.41247">
        <ele>2490.6</ele>
        <time>2013-05-08T06:15:29Z</time>
      </trkpt>
      <trkpt lat="45.02193" lon="6.4124">
        <ele>2492</ele>
        <time>2013-05-08T06:15:36Z</time>
      </trkpt>
      <trkpt lat="45.02188" lon="6.4123">
        <ele>2494.4</ele>
        <time>2013-05-08T06:15:49Z</time>
      </trkpt>
      <trkpt lat="45.02181" lon="6.41224">
        <ele>2495.5</ele>
        <time>2013-05-08T06:16:04Z</time>
      </trkpt>
      <trkpt lat="45.02183" lon="6.41235">
        <ele>2498.3</ele>
        <time>2013-05-08T06:16:22Z</time>
      </trkpt>
      <trkpt lat="45.02181" lon="6.41248">
        <ele>2500.9</ele>
        <time>2013-05-08T06:16:40Z</time>
      </trkpt>
      <trkpt lat="45.02185" lon="6.41258">
        <ele>2502.9</ele>
        <time>2013-05-08T06:16:50Z</time>
      </trkpt>
      <trkpt lat="45.02186" lon="6.4127">
        <ele>2504.6</ele>
        <time>2013-05-08T06:17:03Z</time>
      </trkpt>
      <trkpt lat="45.02185" lon="6.41282">
        <ele>2507</ele>
        <time>2013-05-08T06:17:16Z</time>
      </trkpt>
      <trkpt lat="45.02181" lon="6.41293">
        <ele>2509.2</ele>
        <time>2013-05-08T06:17:27Z</time>
      </trkpt>
      <trkpt lat="45.02183" lon="6.41304">
        <ele>2511.9</ele>
        <time>2013-05-08T06:17:40Z</time>
      </trkpt>
      <trkpt lat="45.02186" lon="6.41316">
        <ele>2513.9</ele>
        <time>2013-05-08T06:17:53Z</time>
      </trkpt>
      <trkpt lat="45.02189" lon="6.41326">
        <ele>2515.3</ele>
        <time>2013-05-08T06:18:03Z</time>
      </trkpt>
      <trkpt lat="45.02186" lon="6.41338">
        <ele>2517.5</ele>
        <time>2013-05-08T06:18:18Z</time>
      </trkpt>
      <trkpt lat="45.02189" lon="6.4135">
        <ele>2518.7</ele>
        <time>2013-05-08T06:18:28Z</time>
      </trkpt>
      <trkpt lat="45.02186" lon="6.41361">
        <ele>2520</ele>
        <time>2013-05-08T06:18:42Z</time>
      </trkpt>
      <trkpt lat="45.02186" lon="6.41373">
        <ele>2523.6</ele>
        <time>2013-05-08T06:19:00Z</time>
      </trkpt>
      <trkpt lat="45.02188" lon="6.41385">
        <ele>2524.5</ele>
        <time>2013-05-08T06:19:15Z</time>
      </trkpt>
      <trkpt lat="45.02192" lon="6.41395">
        <ele>2526.7</ele>
        <time>2013-05-08T06:19:25Z</time>
      </trkpt>
      <trkpt lat="45.02196" lon="6.41405">
        <ele>2527.6</ele>
        <time>2013-05-08T06:19:33Z</time>
      </trkpt>
      <trkpt lat="45.02195" lon="6.41418">
        <ele>2530.1</ele>
        <time>2013-05-08T06:19:46Z</time>
      </trkpt>
      <trkpt lat="45.02194" lon="6.4143">
        <ele>2532.8</ele>
        <time>2013-05-08T06:19:59Z</time>
      </trkpt>
      <trkpt lat="45.02192" lon="6.41442">
        <ele>2533.7</ele>
        <time>2013-05-08T06:20:13Z</time>
      </trkpt>
      <trkpt lat="45.02183" lon="6.41442">
        <ele>2538.3</ele>
        <time>2013-05-08T06:20:35Z</time>
      </trkpt>
      <trkpt lat="45.02176" lon="6.41435">
        <ele>2539</ele>
        <time>2013-05-08T06:20:41Z</time>
      </trkpt>
      <trkpt lat="45.02173" lon="6.41423">
        <ele>2541.4</ele>
        <time>2013-05-08T06:21:03Z</time>
      </trkpt>
      <trkpt lat="45.02166" lon="6.41418">
        <ele>2543.1</ele>
        <time>2013-05-08T06:21:12Z</time>
      </trkpt>
      <trkpt lat="45.0216" lon="6.4141">
        <ele>2544.3</ele>
        <time>2013-05-08T06:21:26Z</time>
      </trkpt>
      <trkpt lat="45.02154" lon="6.41419">
        <ele>2549.6</ele>
        <time>2013-05-08T06:21:52Z</time>
      </trkpt>
      <trkpt lat="45.02147" lon="6.41419">
        <ele>2548.7</ele>
        <time>2013-05-08T06:22:14Z</time>
      </trkpt>
      <trkpt lat="45.02139" lon="6.41415">
        <ele>2548.8</ele>
        <time>2013-05-08T06:22:37Z</time>
      </trkpt>
      <trkpt lat="45.02147" lon="6.41412">
        <ele>2548.6</ele>
        <time>2013-05-08T06:23:08Z</time>
      </trkpt>
      <trkpt lat="45.0214" lon="6.41419">
        <ele>2548.1</ele>
        <time>2013-05-08T06:24:57Z</time>
      </trkpt>
      <trkpt lat="45.02132" lon="6.41416">
        <ele>2548.5</ele>
        <time>2013-05-08T06:25:04Z</time>
      </trkpt>
      <trkpt lat="45.02124" lon="6.41413">
        <ele>2548.1</ele>
        <time>2013-05-08T06:25:11Z</time>
      </trkpt>
      <trkpt lat="45.02116" lon="6.41411">
        <ele>2547.7</ele>
        <time>2013-05-08T06:25:15Z</time>
      </trkpt>
      <trkpt lat="45.02108" lon="6.41408">
        <ele>2547.8</ele>
        <time>2013-05-08T06:25:18Z</time>
      </trkpt>
      <trkpt lat="45.021" lon="6.41406">
        <ele>2547.9</ele>
        <time>2013-05-08T06:25:21Z</time>
      </trkpt>
      <trkpt lat="45.02108" lon="6.41408">
        <ele>2548.1</ele>
        <time>2013-05-08T06:25:28Z</time>
      </trkpt>
      <trkpt lat="45.02116" lon="6.4141">
        <ele>2547.6</ele>
        <time>2013-05-08T06:25:31Z</time>
      </trkpt>
      <trkpt lat="45.02123" lon="6.41412">
        <ele>2548.8</ele>
        <time>2013-05-08T06:25:34Z</time>
      </trkpt>
      <trkpt lat="45.02132" lon="6.41415">
        <ele>2549.1</ele>
        <time>2013-05-08T06:25:38Z</time>
      </trkpt>
      <trkpt lat="45.0214" lon="6.41417">
        <ele>2548.2</ele>
        <time>2013-05-08T06:25:43Z</time>
      </trkpt>
      <trkpt lat="45.02148" lon="6.41422">
        <ele>2548</ele>
        <time>2013-05-08T06:25:48Z</time>
      </trkpt>
      <trkpt lat="45.02156" lon="6.41426">
        <ele>2547.9</ele>
        <time>2013-05-08T06:26:03Z</time>
      </trkpt>
      <trkpt lat="45.02164" lon="6.4143">
        <ele>2548</ele>
        <time>2013-05-08T06:26:20Z</time>
      </trkpt>
      <trkpt lat="45.02156" lon="6.41428">
        <ele>2548</ele>
        <time>2013-05-08T06:27:23Z</time>
      </trkpt>
      <trkpt lat="45.02148" lon="6.41425">
        <ele>2548.5</ele>
        <time>2013-05-08T06:27:50Z</time>
      </trkpt>
      <trkpt lat="45.02142" lon="6.41417">
        <ele>2548.3</ele>
        <time>2013-05-08T06:28:20Z</time>
      </trkpt>
      <trkpt lat="45.02134" lon="6.41414">
        <ele>2547.5</ele>
        <time>2013-05-08T06:28:36Z</time>
      </trkpt>
      <trkpt lat="45.02125" lon="6.41412">
        <ele>2547.3</ele>
        <time>2013-05-08T06:29:19Z</time>
      </trkpt>
      <trkpt lat="45.02133" lon="6.41415">
        <ele>2547.5</ele>
        <time>2013-05-08T06:29:43Z</time>
      </trkpt>
      <trkpt lat="45.0214" lon="6.41419">
        <ele>2547.4</ele>
        <time>2013-05-08T06:29:57Z</time>
      </trkpt>
      <trkpt lat="45.02148" lon="6.41423">
        <ele>2547.1</ele>
        <time>2013-05-08T06:30:01Z</time>
      </trkpt>
      <trkpt lat="45.02157" lon="6.41426">
        <ele>2547.3</ele>
        <time>2013-05-08T06:30:51Z</time>
      </trkpt>
      <trkpt lat="45.02149" lon="6.41427">
        <ele>2546.2</ele>
        <time>2013-05-08T06:32:02Z</time>
      </trkpt>
      <trkpt lat="45.02157" lon="6.41427">
        <ele>2546.1</ele>
        <time>2013-05-08T06:32:33Z</time>
      </trkpt>
      <trkpt lat="45.02149" lon="6.41422">
        <ele>2548.9</ele>
        <time>2013-05-08T06:33:24Z</time>
      </trkpt>
      <trkpt lat="45.02142" lon="6.41419">
        <ele>2552.9</ele>
        <time>2013-05-08T06:33:40Z</time>
      </trkpt>
      <trkpt lat="45.02134" lon="6.41415">
        <ele>2554.1</ele>
        <time>2013-05-08T06:33:46Z</time>
      </trkpt>
      <trkpt lat="45.02126" lon="6.41412">
        <ele>2554.4</ele>
        <time>2013-05-08T06:33:51Z</time>
      </trkpt>
      <trkpt lat="45.02118" lon="6.41408">
        <ele>2555.4</ele>
        <time>2013-05-08T06:33:56Z</time>
      </trkpt>
      <trkpt lat="45.02109" lon="6.41407">
        <ele>2557.3</ele>
        <time>2013-05-08T06:34:14Z</time>
      </trkpt>
      <trkpt lat="45.021" lon="6.41406">
        <ele>2559.8</ele>
        <time>2013-05-08T06:34:32Z</time>
      </trkpt>
      <trkpt lat="45.02093" lon="6.41412">
        <ele>2563</ele>
        <time>2013-05-08T06:34:51Z</time>
      </trkpt>
      <trkpt lat="45.02084" lon="6.41413">
        <ele>2564</ele>
        <time>2013-05-08T06:34:59Z</time>
      </trkpt>
      <trkpt lat="45.02077" lon="6.41419">
        <ele>2566.7</ele>
        <time>2013-05-08T06:35:20Z</time>
      </trkpt>
      <trkpt lat="45.02068" lon="6.4142">
        <ele>2568.6</ele>
        <time>2013-05-08T06:35:32Z</time>
      </trkpt>
      <trkpt lat="45.0206" lon="6.41421">
        <ele>2571.1</ele>
        <time>2013-05-08T06:35:45Z</time>
      </trkpt>
      <trkpt lat="45.02052" lon="6.4142">
        <ele>2573.5</ele>
        <time>2013-05-08T06:36:01Z</time>
      </trkpt>
      <trkpt lat="45.02044" lon="6.41418">
        <ele>2574.3</ele>
        <time>2013-05-08T06:36:11Z</time>
      </trkpt>
      <trkpt lat="45.02035" lon="6.41415">
        <ele>2576</ele>
        <time>2013-05-08T06:36:22Z</time>
      </trkpt>
      <trkpt lat="45.02026" lon="6.41413">
        <ele>2579.8</ele>
        <time>2013-05-08T06:36:36Z</time>
      </trkpt>
      <trkpt lat="45.02018" lon="6.41415">
        <ele>2583.4</ele>
        <time>2013-05-08T06:37:01Z</time>
      </trkpt>
      <trkpt lat="45.02009" lon="6.41416">
        <ele>2585.7</ele>
        <time>2013-05-08T06:37:14Z</time>
      </trkpt>
      <trkpt lat="45.02" lon="6.41416">
        <ele>2588</ele>
        <time>2013-05-08T06:37:25Z</time>
      </trkpt>
      <trkpt lat="45.01992" lon="6.41417">
        <ele>2590.1</ele>
        <time>2013-05-08T06:37:36Z</time>
      </trkpt>
      <trkpt lat="45.01984" lon="6.41422">
        <ele>2593.7</ele>
        <time>2013-05-08T06:38:00Z</time>
      </trkpt>
      <trkpt lat="45.01989" lon="6.4143">
        <ele>2601.5</ele>
        <time>2013-05-08T06:38:59Z</time>
      </trkpt>
      <trkpt lat="45.01996" lon="6.41433">
        <ele>2601.7</ele>
        <time>2013-05-08T06:39:04Z</time>
      </trkpt>
      <trkpt lat="45.01988" lon="6.41434">
        <ele>2603</ele>
        <time>2013-05-08T06:39:22Z</time>
      </trkpt>
      <trkpt lat="45.0198" lon="6.41429">
        <ele>2603.5</ele>
        <time>2013-05-08T06:39:28Z</time>
      </trkpt>
      <trkpt lat="45.01972" lon="6.41427">
        <ele>2605.3</ele>
        <time>2013-05-08T06:39:36Z</time>
      </trkpt>
      <trkpt lat="45.01964" lon="6.41425">
        <ele>2606.6</ele>
        <time>2013-05-08T06:39:43Z</time>
      </trkpt>
      <trkpt lat="45.01956" lon="6.41422">
        <ele>2607.8</ele>
        <time>2013-05-08T06:39:49Z</time>
      </trkpt>
      <trkpt lat="45.01946" lon="6.41417">
        <ele>2608</ele>
        <time>2013-05-08T06:40:08Z</time>
      </trkpt>
      <trkpt lat="45.0194" lon="6.41408">
        <ele>2610.9</ele>
        <time>2013-05-08T06:40:27Z</time>
      </trkpt>
      <trkpt lat="45.01931" lon="6.41409">
        <ele>2613.8</ele>
        <time>2013-05-08T06:40:36Z</time>
      </trkpt>
      <trkpt lat="45.01938" lon="6.41401">
        <ele>2617.7</ele>
        <time>2013-05-08T06:40:59Z</time>
      </trkpt>
      <trkpt lat="45.01931" lon="6.41398">
        <ele>2621.1</ele>
        <time>2013-05-08T06:41:16Z</time>
      </trkpt>
      <trkpt lat="45.01922" lon="6.41397">
        <ele>2619.9</ele>
        <time>2013-05-08T06:41:20Z</time>
      </trkpt>
      <trkpt lat="45.01914" lon="6.41397">
        <ele>2620.6</ele>
        <time>2013-05-08T06:41:25Z</time>
      </trkpt>
      <trkpt lat="45.01906" lon="6.41398">
        <ele>2620.4</ele>
        <time>2013-05-08T06:41:30Z</time>
      </trkpt>
      <trkpt lat="45.01896" lon="6.41394">
        <ele>2620</ele>
        <time>2013-05-08T06:41:35Z</time>
      </trkpt>
      <trkpt lat="45.01891" lon="6.41388">
        <ele>2620.5</ele>
        <time>2013-05-08T06:41:41Z</time>
      </trkpt>
      <trkpt lat="45.01884" lon="6.41382">
        <ele>2620.4</ele>
        <time>2013-05-08T06:41:45Z</time>
      </trkpt>
      <trkpt lat="45.01876" lon="6.41378">
        <ele>2620.1</ele>
        <time>2013-05-08T06:41:50Z</time>
      </trkpt>
      <trkpt lat="45.01869" lon="6.4137">
        <ele>2620.5</ele>
        <time>2013-05-08T06:41:56Z</time>
      </trkpt>
      <trkpt lat="45.01877" lon="6.41368">
        <ele>2621.9</ele>
        <time>2013-05-08T06:42:08Z</time>
      </trkpt>
      <trkpt lat="45.01884" lon="6.41374">
        <ele>2622.8</ele>
        <time>2013-05-08T06:42:13Z</time>
      </trkpt>
      <trkpt lat="45.01889" lon="6.41384">
        <ele>2624.4</ele>
        <time>2013-05-08T06:42:19Z</time>
      </trkpt>
      <trkpt lat="45.01896" lon="6.41391">
        <ele>2627.3</ele>
        <time>2013-05-08T06:42:40Z</time>
      </trkpt>
      <trkpt lat="45.01895" lon="6.41403">
        <ele>2629.1</ele>
        <time>2013-05-08T06:42:54Z</time>
      </trkpt>
      <trkpt lat="45.01886" lon="6.41402">
        <ele>2634.8</ele>
        <time>2013-05-08T06:43:40Z</time>
      </trkpt>
      <trkpt lat="45.01878" lon="6.41407">
        <ele>2637.4</ele>
        <time>2013-05-08T06:43:50Z</time>
      </trkpt>
      <trkpt lat="45.0187" lon="6.41409">
        <ele>2641.9</ele>
        <time>2013-05-08T06:44:22Z</time>
      </trkpt>
      <trkpt lat="45.01864" lon="6.41399">
        <ele>2642.9</ele>
        <time>2013-05-08T06:44:30Z</time>
      </trkpt>
      <trkpt lat="45.01859" lon="6.41389">
        <ele>2643.3</ele>
        <time>2013-05-08T06:44:38Z</time>
      </trkpt>
      <trkpt lat="45.01863" lon="6.41378">
        <ele>2645.3</ele>
        <time>2013-05-08T06:44:52Z</time>
      </trkpt>
      <trkpt lat="45.01863" lon="6.41366">
        <ele>2647.4</ele>
        <time>2013-05-08T06:45:09Z</time>
      </trkpt>
      <trkpt lat="45.01872" lon="6.41363">
        <ele>2648.8</ele>
        <time>2013-05-08T06:45:19Z</time>
      </trkpt>
      <trkpt lat="45.01867" lon="6.41371">
        <ele>2653</ele>
        <time>2013-05-08T06:45:40Z</time>
      </trkpt>
      <trkpt lat="45.01859" lon="6.41376">
        <ele>2654.4</ele>
        <time>2013-05-08T06:45:51Z</time>
      </trkpt>
      <trkpt lat="45.01858" lon="6.41365">
        <ele>2656.4</ele>
        <time>2013-05-08T06:46:07Z</time>
      </trkpt>
      <trkpt lat="45.0186" lon="6.41353">
        <ele>2658.5</ele>
        <time>2013-05-08T06:46:31Z</time>
      </trkpt>
      <trkpt lat="45.01858" lon="6.41341">
        <ele>2659.8</ele>
        <time>2013-05-08T06:46:47Z</time>
      </trkpt>
      <trkpt lat="45.0186" lon="6.4133">
        <ele>2660.7</ele>
        <time>2013-05-08T06:46:54Z</time>
      </trkpt>
      <trkpt lat="45.01866" lon="6.41321">
        <ele>2660.6</ele>
        <time>2013-05-08T06:47:01Z</time>
      </trkpt>
      <trkpt lat="45.01871" lon="6.41312">
        <ele>2661.2</ele>
        <time>2013-05-08T06:47:09Z</time>
      </trkpt>
      <trkpt lat="45.01874" lon="6.41301">
        <ele>2661.2</ele>
        <time>2013-05-08T06:47:19Z</time>
      </trkpt>
      <trkpt lat="45.01879" lon="6.41291">
        <ele>2664.1</ele>
        <time>2013-05-08T06:47:32Z</time>
      </trkpt>
      <trkpt lat="45.01879" lon="6.41278">
        <ele>2665.4</ele>
        <time>2013-05-08T06:48:12Z</time>
      </trkpt>
      <trkpt lat="45.01883" lon="6.41267">
        <ele>2665.7</ele>
        <time>2013-05-08T06:48:56Z</time>
      </trkpt>
      <trkpt lat="45.01883" lon="6.41255">
        <ele>2667.7</ele>
        <time>2013-05-08T06:49:09Z</time>
      </trkpt>
      <trkpt lat="45.01887" lon="6.41245">
        <ele>2670.3</ele>
        <time>2013-05-08T06:49:22Z</time>
      </trkpt>
      <trkpt lat="45.01889" lon="6.41233">
        <ele>2671</ele>
        <time>2013-05-08T06:49:34Z</time>
      </trkpt>
      <trkpt lat="45.01886" lon="6.41244">
        <ele>2677.2</ele>
        <time>2013-05-08T06:50:33Z</time>
      </trkpt>
      <trkpt lat="45.01879" lon="6.4125">
        <ele>2678.6</ele>
        <time>2013-05-08T06:50:45Z</time>
      </trkpt>
      <trkpt lat="45.01871" lon="6.41254">
        <ele>2679.7</ele>
        <time>2013-05-08T06:51:14Z</time>
      </trkpt>
      <trkpt lat="45.0187" lon="6.41242">
        <ele>2685.6</ele>
        <time>2013-05-08T06:52:26Z</time>
      </trkpt>
      <trkpt lat="45.01876" lon="6.41232">
        <ele>2688.4</ele>
        <time>2013-05-08T06:53:12Z</time>
      </trkpt>
      <trkpt lat="45.01878" lon="6.4122">
        <ele>2688.1</ele>
        <time>2013-05-08T06:56:18Z</time>
      </trkpt>
      <trkpt lat="45.01883" lon="6.41209">
        <ele>2690.4</ele>
        <time>2013-05-08T06:58:09Z</time>
      </trkpt>
      <trkpt lat="45.01885" lon="6.41198">
        <ele>2693.9</ele>
        <time>2013-05-08T06:58:39Z</time>
      </trkpt>
      <trkpt lat="45.01892" lon="6.41189">
        <ele>2696.8</ele>
        <time>2013-05-08T06:59:07Z</time>
      </trkpt>
      <trkpt lat="45.019" lon="6.41186">
        <ele>2699.8</ele>
        <time>2013-05-08T06:59:56Z</time>
      </trkpt>
      <trkpt lat="45.01891" lon="6.41184">
        <ele>2699.9</ele>
        <time>2013-05-08T07:05:31Z</time>
      </trkpt>
      <trkpt lat="45.01883" lon="6.41178">
        <ele>2702</ele>
        <time>2013-05-08T07:06:02Z</time>
      </trkpt>
      <trkpt lat="45.01876" lon="6.41171">
        <ele>2705.7</ele>
        <time>2013-05-08T07:06:20Z</time>
      </trkpt>
      <trkpt lat="45.01869" lon="6.41165">
        <ele>2707.1</ele>
        <time>2013-05-08T07:07:20Z</time>
      </trkpt>
      <trkpt lat="45.01871" lon="6.41177">
        <ele>2706.7</ele>
        <time>2013-05-08T07:08:21Z</time>
      </trkpt>
      <trkpt lat="45.01864" lon="6.41184">
        <ele>2708.2</ele>
        <time>2013-05-08T07:09:07Z</time>
      </trkpt>
      <trkpt lat="45.01855" lon="6.41181">
        <ele>2711.4</ele>
        <time>2013-05-08T07:09:24Z</time>
      </trkpt>
      <trkpt lat="45.01846" lon="6.4118">
        <ele>2715.1</ele>
        <time>2013-05-08T07:09:42Z</time>
      </trkpt>
      <trkpt lat="45.01839" lon="6.41187">
        <ele>2716.1</ele>
        <time>2013-05-08T07:09:59Z</time>
      </trkpt>
      <trkpt lat="45.0183" lon="6.41185">
        <ele>2722.4</ele>
        <time>2013-05-08T07:10:28Z</time>
      </trkpt>
      <trkpt lat="45.01825" lon="6.41175">
        <ele>2724.3</ele>
        <time>2013-05-08T07:10:45Z</time>
      </trkpt>
      <trkpt lat="45.01818" lon="6.41168">
        <ele>2726.1</ele>
        <time>2013-05-08T07:11:05Z</time>
      </trkpt>
      <trkpt lat="45.01812" lon="6.41158">
        <ele>2727.5</ele>
        <time>2013-05-08T07:11:22Z</time>
      </trkpt>
      <trkpt lat="45.01805" lon="6.41151">
        <ele>2733.1</ele>
        <time>2013-05-08T07:11:45Z</time>
      </trkpt>
      <trkpt lat="45.01798" lon="6.41143">
        <ele>2735.4</ele>
        <time>2013-05-08T07:12:07Z</time>
      </trkpt>
      <trkpt lat="45.01791" lon="6.41135">
        <ele>2737.9</ele>
        <time>2013-05-08T07:12:34Z</time>
      </trkpt>
      <trkpt lat="45.01787" lon="6.41125">
        <ele>2740.6</ele>
        <time>2013-05-08T07:12:49Z</time>
      </trkpt>
      <trkpt lat="45.0178" lon="6.41118">
        <ele>2744</ele>
        <time>2013-05-08T07:13:09Z</time>
      </trkpt>
      <trkpt lat="45.01774" lon="6.41109">
        <ele>2748</ele>
        <time>2013-05-08T07:13:39Z</time>
      </trkpt>
      <trkpt lat="45.01767" lon="6.41101">
        <ele>2751</ele>
        <time>2013-05-08T07:13:57Z</time>
      </trkpt>
      <trkpt lat="45.0176" lon="6.41093">
        <ele>2752.2</ele>
        <time>2013-05-08T07:14:22Z</time>
      </trkpt>
      <trkpt lat="45.01753" lon="6.41086">
        <ele>2755.5</ele>
        <time>2013-05-08T07:14:42Z</time>
      </trkpt>
      <trkpt lat="45.01745" lon="6.41083">
        <ele>2759.9</ele>
        <time>2013-05-08T07:15:04Z</time>
      </trkpt>
      <trkpt lat="45.01737" lon="6.41076">
        <ele>2762.4</ele>
        <time>2013-05-08T07:15:41Z</time>
      </trkpt>
      <trkpt lat="45.01737" lon="6.41088">
        <ele>2766.3</ele>
        <time>2013-05-08T07:16:12Z</time>
      </trkpt>
      <trkpt lat="45.01736" lon="6.411">
        <ele>2768.1</ele>
        <time>2013-05-08T07:16:39Z</time>
      </trkpt>
      <trkpt lat="45.01736" lon="6.41112">
        <ele>2771.4</ele>
        <time>2013-05-08T07:16:52Z</time>
      </trkpt>
      <trkpt lat="45.01736" lon="6.41125">
        <ele>2774.7</ele>
        <time>2013-05-08T07:17:10Z</time>
      </trkpt>
      <trkpt lat="45.0174" lon="6.41135">
        <ele>2771</ele>
        <time>2013-05-08T07:18:00Z</time>
      </trkpt>
      <trkpt lat="45.01732" lon="6.4113">
        <ele>2777.5</ele>
        <time>2013-05-08T07:18:19Z</time>
      </trkpt>
      <trkpt lat="45.01725" lon="6.41122">
        <ele>2780.2</ele>
        <time>2013-05-08T07:18:33Z</time>
      </trkpt>
      <trkpt lat="45.01718" lon="6.41115">
        <ele>2782.6</ele>
        <time>2013-05-08T07:18:49Z</time>
      </trkpt>
      <trkpt lat="45.01711" lon="6.4111">
        <ele>2787.2</ele>
        <time>2013-05-08T07:19:21Z</time>
      </trkpt>
      <trkpt lat="45.01709" lon="6.41121">
        <ele>2793</ele>
        <time>2013-05-08T07:20:06Z</time>
      </trkpt>
      <trkpt lat="45.01702" lon="6.41129">
        <ele>2797.1</ele>
        <time>2013-05-08T07:20:44Z</time>
      </trkpt>
      <trkpt lat="45.01694" lon="6.41125">
        <ele>2797.9</ele>
        <time>2013-05-08T07:21:00Z</time>
      </trkpt>
      <trkpt lat="45.01686" lon="6.41121">
        <ele>2801.6</ele>
        <time>2013-05-08T07:21:18Z</time>
      </trkpt>
      <trkpt lat="45.01677" lon="6.41119">
        <ele>2802.8</ele>
        <time>2013-05-08T07:22:04Z</time>
      </trkpt>
      <trkpt lat="45.0167" lon="6.41112">
        <ele>2805.9</ele>
        <time>2013-05-08T07:22:21Z</time>
      </trkpt>
      <trkpt lat="45.01663" lon="6.41105">
        <ele>2808.5</ele>
        <time>2013-05-08T07:22:41Z</time>
      </trkpt>
      <trkpt lat="45.01655" lon="6.41099">
        <ele>2811.4</ele>
        <time>2013-05-08T07:23:11Z</time>
      </trkpt>
      <trkpt lat="45.01647" lon="6.41093">
        <ele>2814.6</ele>
        <time>2013-05-08T07:23:30Z</time>
      </trkpt>
      <trkpt lat="45.0164" lon="6.41087">
        <ele>2818.2</ele>
        <time>2013-05-08T07:24:00Z</time>
      </trkpt>
      <trkpt lat="45.01635" lon="6.41098">
        <ele>2821.6</ele>
        <time>2013-05-08T07:24:35Z</time>
      </trkpt>
      <trkpt lat="45.01639" lon="6.41109">
        <ele>2825.2</ele>
        <time>2013-05-08T07:24:53Z</time>
      </trkpt>
      <trkpt lat="45.0164" lon="6.41122">
        <ele>2826.7</ele>
        <time>2013-05-08T07:25:09Z</time>
      </trkpt>
      <trkpt lat="45.01639" lon="6.41134">
        <ele>2828.9</ele>
        <time>2013-05-08T07:25:26Z</time>
      </trkpt>
      <trkpt lat="45.01642" lon="6.41146">
        <ele>2832.8</ele>
        <time>2013-05-08T07:25:52Z</time>
      </trkpt>
      <trkpt lat="45.01633" lon="6.41145">
        <ele>2836.6</ele>
        <time>2013-05-08T07:26:18Z</time>
      </trkpt>
      <trkpt lat="45.01625" lon="6.4114">
        <ele>2835.9</ele>
        <time>2013-05-08T07:26:33Z</time>
      </trkpt>
      <trkpt lat="45.01618" lon="6.41133">
        <ele>2836.7</ele>
        <time>2013-05-08T07:26:49Z</time>
      </trkpt>
      <trkpt lat="45.01614" lon="6.41145">
        <ele>2845.4</ele>
        <time>2013-05-08T07:27:45Z</time>
      </trkpt>
      <trkpt lat="45.01605" lon="6.41147">
        <ele>2851.4</ele>
        <time>2013-05-08T07:28:40Z</time>
      </trkpt>
      <trkpt lat="45.01601" lon="6.41158">
        <ele>2854.9</ele>
        <time>2013-05-08T07:29:33Z</time>
      </trkpt>
      <trkpt lat="45.01604" lon="6.4117">
        <ele>2856.7</ele>
        <time>2013-05-08T07:29:56Z</time>
      </trkpt>
      <trkpt lat="45.01609" lon="6.4118">
        <ele>2858.2</ele>
        <time>2013-05-08T07:30:21Z</time>
      </trkpt>
      <trkpt lat="45.01601" lon="6.41184">
        <ele>2864.7</ele>
        <time>2013-05-08T07:31:16Z</time>
      </trkpt>
      <trkpt lat="45.01592" lon="6.41184">
        <ele>2865.6</ele>
        <time>2013-05-08T07:31:33Z</time>
      </trkpt>
      <trkpt lat="45.01596" lon="6.41195">
        <ele>2869.8</ele>
        <time>2013-05-08T07:32:26Z</time>
      </trkpt>
      <trkpt lat="45.01604" lon="6.41201">
        <ele>2871.5</ele>
        <time>2013-05-08T07:32:37Z</time>
      </trkpt>
      <trkpt lat="45.01595" lon="6.41202">
        <ele>2875.1</ele>
        <time>2013-05-08T07:33:21Z</time>
      </trkpt>
      <trkpt lat="45.01587" lon="6.412">
        <ele>2876.7</ele>
        <time>2013-05-08T07:33:31Z</time>
      </trkpt>
      <trkpt lat="45.01578" lon="6.41197">
        <ele>2878.7</ele>
        <time>2013-05-08T07:33:45Z</time>
      </trkpt>
      <trkpt lat="45.01584" lon="6.41206">
        <ele>2881.4</ele>
        <time>2013-05-08T07:34:33Z</time>
      </trkpt>
      <trkpt lat="45.01576" lon="6.41209">
        <ele>2886.7</ele>
        <time>2013-05-08T07:35:17Z</time>
      </trkpt>
      <trkpt lat="45.01568" lon="6.41206">
        <ele>2889</ele>
        <time>2013-05-08T07:35:30Z</time>
      </trkpt>
      <trkpt lat="45.01559" lon="6.41204">
        <ele>2890.6</ele>
        <time>2013-05-08T07:35:44Z</time>
      </trkpt>
      <trkpt lat="45.01561" lon="6.41216">
        <ele>2896.6</ele>
        <time>2013-05-08T07:36:47Z</time>
      </trkpt>
      <trkpt lat="45.01566" lon="6.41226">
        <ele>2899.3</ele>
        <time>2013-05-08T07:37:01Z</time>
      </trkpt>
      <trkpt lat="45.01557" lon="6.41229">
        <ele>2901.5</ele>
        <time>2013-05-08T07:37:38Z</time>
      </trkpt>
      <trkpt lat="45.01549" lon="6.41226">
        <ele>2904.4</ele>
        <time>2013-05-08T07:37:52Z</time>
      </trkpt>
      <trkpt lat="45.01541" lon="6.4122">
        <ele>2907.1</ele>
        <time>2013-05-08T07:38:07Z</time>
      </trkpt>
      <trkpt lat="45.01545" lon="6.41231">
        <ele>2911.7</ele>
        <time>2013-05-08T07:39:04Z</time>
      </trkpt>
      <trkpt lat="45.01536" lon="6.41235">
        <ele>2914.8</ele>
        <time>2013-05-08T07:39:41Z</time>
      </trkpt>
      <trkpt lat="45.01528" lon="6.41229">
        <ele>2918.6</ele>
        <time>2013-05-08T07:39:58Z</time>
      </trkpt>
      <trkpt lat="45.01529" lon="6.41241">
        <ele>2923.5</ele>
        <time>2013-05-08T07:40:54Z</time>
      </trkpt>
      <trkpt lat="45.01531" lon="6.41253">
        <ele>2926.9</ele>
        <time>2013-05-08T07:41:10Z</time>
      </trkpt>
      <trkpt lat="45.01522" lon="6.41255">
        <ele>2929.1</ele>
        <time>2013-05-08T07:43:18Z</time>
      </trkpt>
      <trkpt lat="45.01514" lon="6.41258">
        <ele>2928.2</ele>
        <time>2013-05-08T07:45:01Z</time>
      </trkpt>
      <trkpt lat="45.01522" lon="6.41256">
        <ele>2929.1</ele>
        <time>2013-05-08T07:46:49Z</time>
      </trkpt>
      <trkpt lat="45.01531" lon="6.41257">
        <ele>2927.8</ele>
        <time>2013-05-08T07:49:03Z</time>
      </trkpt>
      <trkpt lat="45.01537" lon="6.41249">
        <ele>2925.8</ele>
        <time>2013-05-08T07:49:52Z</time>
      </trkpt>
      <trkpt lat="45.0153" lon="6.41255">
        <ele>2927.8</ele>
        <time>2013-05-08T07:50:13Z</time>
      </trkpt>
      <trkpt lat="45.01522" lon="6.41254">
        <ele>2928</ele>
        <time>2013-05-08T07:51:24Z</time>
      </trkpt>
      <trkpt lat="45.0153" lon="6.41251">
        <ele>2930</ele>
        <time>2013-05-08T07:52:51Z</time>
      </trkpt>
      <trkpt lat="45.01523" lon="6.41259">
        <ele>2931.5</ele>
        <time>2013-05-08T07:54:04Z</time>
      </trkpt>
      <trkpt lat="45.01515" lon="6.41259">
        <ele>2930.4</ele>
        <time>2013-05-08T07:55:38Z</time>
      </trkpt>
      <trkpt lat="45.01508" lon="6.41251">
        <ele>2933.6</ele>
        <time>2013-05-08T07:55:57Z</time>
      </trkpt>
      <trkpt lat="45.01503" lon="6.41241">
        <ele>2934.9</ele>
        <time>2013-05-08T07:56:13Z</time>
      </trkpt>
      <trkpt lat="45.01499" lon="6.4123">
        <ele>2937.8</ele>
        <time>2013-05-08T07:56:45Z</time>
      </trkpt>
      <trkpt lat="45.01493" lon="6.41222">
        <ele>2941.2</ele>
        <time>2013-05-08T07:57:15Z</time>
      </trkpt>
      <trkpt lat="45.01486" lon="6.41213">
        <ele>2942.4</ele>
        <time>2013-05-08T07:57:31Z</time>
      </trkpt>
      <trkpt lat="45.01479" lon="6.41206">
        <ele>2948.5</ele>
        <time>2013-05-08T07:58:15Z</time>
      </trkpt>
      <trkpt lat="45.01478" lon="6.41194">
        <ele>2952.3</ele>
        <time>2013-05-08T07:59:16Z</time>
      </trkpt>
      <trkpt lat="45.01471" lon="6.41186">
        <ele>2954.3</ele>
        <time>2013-05-08T08:00:15Z</time>
      </trkpt>
      <trkpt lat="45.01466" lon="6.41176">
        <ele>2958.4</ele>
        <time>2013-05-08T08:01:00Z</time>
      </trkpt>
      <trkpt lat="45.01462" lon="6.41165">
        <ele>2964.3</ele>
        <time>2013-05-08T08:02:10Z</time>
      </trkpt>
      <trkpt lat="45.01456" lon="6.41156">
        <ele>2967</ele>
        <time>2013-05-08T08:02:51Z</time>
      </trkpt>
      <trkpt lat="45.01462" lon="6.41159">
        <ele>2974.5</ele>
        <time>2013-05-08T08:03:40Z</time>
      </trkpt>
      <trkpt lat="45.01454" lon="6.41154">
        <ele>2975.5</ele>
        <time>2013-05-08T08:04:01Z</time>
      </trkpt>
      <trkpt lat="45.0145" lon="6.41143">
        <ele>2980.7</ele>
        <time>2013-05-08T08:04:21Z</time>
      </trkpt>
      <trkpt lat="45.01442" lon="6.41147">
        <ele>2997.8</ele>
        <time>2013-05-08T08:07:17Z</time>
      </trkpt>
      <trkpt lat="45.01433" lon="6.41148">
        <ele>3002.9</ele>
        <time>2013-05-08T08:08:08Z</time>
      </trkpt>
      <trkpt lat="45.01425" lon="6.41144">
        <ele>3006.3</ele>
        <time>2013-05-08T08:08:48Z</time>
      </trkpt>
      <trkpt lat="45.0142" lon="6.41155">
        <ele>3012.6</ele>
        <time>2013-05-08T08:14:56Z</time>
      </trkpt>
      <trkpt lat="45.01418" lon="6.41167">
        <ele>3014.1</ele>
        <time>2013-05-08T08:15:28Z</time>
      </trkpt>
      <trkpt lat="45.0141" lon="6.4117">
        <ele>3021.4</ele>
        <time>2013-05-08T08:16:21Z</time>
      </trkpt>
      <trkpt lat="45.01404" lon="6.4118">
        <ele>3030.5</ele>
        <time>2013-05-08T08:17:53Z</time>
      </trkpt>
      <trkpt lat="45.01401" lon="6.41192">
        <ele>3040.5</ele>
        <time>2013-05-08T08:19:11Z</time>
      </trkpt>
      <trkpt lat="45.01394" lon="6.41199">
        <ele>3047.8</ele>
        <time>2013-05-08T08:20:07Z</time>
      </trkpt>
      <trkpt lat="45.01386" lon="6.41204">
        <ele>3057.2</ele>
        <time>2013-05-08T08:20:56Z</time>
      </trkpt>
      <trkpt lat="45.01377" lon="6.41209">
        <ele>3062.4</ele>
        <time>2013-05-08T08:21:33Z</time>
      </trkpt>
      <trkpt lat="45.0137" lon="6.41215">
        <ele>3072.5</ele>
        <time>2013-05-08T08:23:08Z</time>
      </trkpt>
      <trkpt lat="45.01363" lon="6.41223">
        <ele>3076.4</ele>
        <time>2013-05-08T08:23:50Z</time>
      </trkpt>
      <trkpt lat="45.01355" lon="6.41218">
        <ele>3089</ele>
        <time>2013-05-08T08:25:16Z</time>
      </trkpt>
      <trkpt lat="45.01347" lon="6.41223">
        <ele>3097.3</ele>
        <time>2013-05-08T08:37:03Z</time>
      </trkpt>
      <trkpt lat="45.01356" lon="6.41219">
        <ele>3099.9</ele>
        <time>2013-05-08T08:41:18Z</time>
      </trkpt>
      <trkpt lat="45.0135" lon="6.41209">
        <ele>3106</ele>
        <time>2013-05-08T08:52:48Z</time>
      </trkpt>
      <trkpt lat="45.01343" lon="6.41201">
        <ele>3109.6</ele>
        <time>2013-05-08T08:53:02Z</time>
      </trkpt>
      <trkpt lat="45.01336" lon="6.41194">
        <ele>3110.1</ele>
        <time>2013-05-08T08:53:14Z</time>
      </trkpt>
      <trkpt lat="45.01329" lon="6.41186">
        <ele>3113.5</ele>
        <time>2013-05-08T08:53:28Z</time>
      </trkpt>
      <trkpt lat="45.01323" lon="6.41179">
        <ele>3115.7</ele>
        <time>2013-05-08T08:53:41Z</time>
      </trkpt>
      <trkpt lat="45.01315" lon="6.41173">
        <ele>3116.5</ele>
        <time>2013-05-08T08:53:54Z</time>
      </trkpt>
      <trkpt lat="45.01307" lon="6.41167">
        <ele>3119.9</ele>
        <time>2013-05-08T08:54:12Z</time>
      </trkpt>
      <trkpt lat="45.013" lon="6.4116">
        <ele>3121.3</ele>
        <time>2013-05-08T08:54:27Z</time>
      </trkpt>
      <trkpt lat="45.01293" lon="6.41154">
        <ele>3124.1</ele>
        <time>2013-05-08T08:54:46Z</time>
      </trkpt>
      <trkpt lat="45.01286" lon="6.41145">
        <ele>3128.6</ele>
        <time>2013-05-08T08:55:07Z</time>
      </trkpt>
      <trkpt lat="45.0128" lon="6.41136">
        <ele>3130.4</ele>
        <time>2013-05-08T08:55:26Z</time>
      </trkpt>
      <trkpt lat="45.01274" lon="6.41127">
        <ele>3137.8</ele>
        <time>2013-05-08T08:56:09Z</time>
      </trkpt>
      <trkpt lat="45.01268" lon="6.41118">
        <ele>3143.6</ele>
        <time>2013-05-08T08:56:34Z</time>
      </trkpt>
      <trkpt lat="45.0126" lon="6.41118">
        <ele>3145.4</ele>
        <time>2013-05-08T08:57:24Z</time>
      </trkpt>
      <trkpt lat="45.01254" lon="6.41109">
        <ele>3150.6</ele>
        <time>2013-05-08T08:57:42Z</time>
      </trkpt>
      <trkpt lat="45.01248" lon="6.41099">
        <ele>3153.1</ele>
        <time>2013-05-08T08:58:20Z</time>
      </trkpt>
      <trkpt lat="45.01241" lon="6.41091">
        <ele>3157.9</ele>
        <time>2013-05-08T08:58:47Z</time>
      </trkpt>
      <trkpt lat="45.01248" lon="6.41099">
        <ele>3154.9</ele>
        <time>2013-05-08T09:07:52Z</time>
      </trkpt>
      <trkpt lat="45.01256" lon="6.41105">
        <ele>3150.8</ele>
        <time>2013-05-08T09:08:03Z</time>
      </trkpt>
      <trkpt lat="45.01263" lon="6.41111">
        <ele>3143.2</ele>
        <time>2013-05-08T09:08:44Z</time>
      </trkpt>
      <trkpt lat="45.0127" lon="6.41116">
        <ele>3141.1</ele>
        <time>2013-05-08T09:08:56Z</time>
      </trkpt>
      <trkpt lat="45.01275" lon="6.41126">
        <ele>3136.2</ele>
        <time>2013-05-08T09:09:18Z</time>
      </trkpt>
      <trkpt lat="45.01282" lon="6.41135">
        <ele>3129.3</ele>
        <time>2013-05-08T09:09:39Z</time>
      </trkpt>
      <trkpt lat="45.01289" lon="6.41141">
        <ele>3128.4</ele>
        <time>2013-05-08T09:10:04Z</time>
      </trkpt>
      <trkpt lat="45.01295" lon="6.41149">
        <ele>3125</ele>
        <time>2013-05-08T09:10:34Z</time>
      </trkpt>
      <trkpt lat="45.01303" lon="6.41156">
        <ele>3122.6</ele>
        <time>2013-05-08T09:10:46Z</time>
      </trkpt>
      <trkpt lat="45.01309" lon="6.41163">
        <ele>3120</ele>
        <time>2013-05-08T09:10:52Z</time>
      </trkpt>
      <trkpt lat="45.01316" lon="6.41168">
        <ele>3118.1</ele>
        <time>2013-05-08T09:10:58Z</time>
      </trkpt>
      <trkpt lat="45.01324" lon="6.41174">
        <ele>3116</ele>
        <time>2013-05-08T09:11:03Z</time>
      </trkpt>
      <trkpt lat="45.01331" lon="6.41179">
        <ele>3115.7</ele>
        <time>2013-05-08T09:11:08Z</time>
      </trkpt>
      <trkpt lat="45.01338" lon="6.41186">
        <ele>3112.6</ele>
        <time>2013-05-08T09:11:15Z</time>
      </trkpt>
      <trkpt lat="45.01344" lon="6.41194">
        <ele>3110.8</ele>
        <time>2013-05-08T09:11:21Z</time>
      </trkpt>
      <trkpt lat="45.01348" lon="6.41203">
        <ele>3108.9</ele>
        <time>2013-05-08T09:11:28Z</time>
      </trkpt>
      <trkpt lat="45.01354" lon="6.41212">
        <ele>3104.9</ele>
        <time>2013-05-08T09:11:40Z</time>
      </trkpt>
      <trkpt lat="45.01362" lon="6.41207">
        <ele>3109.8</ele>
        <time>2013-05-08T09:12:42Z</time>
      </trkpt>
      <trkpt lat="45.01353" lon="6.41213">
        <ele>3104.3</ele>
        <time>2013-05-08T09:14:16Z</time>
      </trkpt>
      <trkpt lat="45.01346" lon="6.41206">
        <ele>3098.8</ele>
        <time>2013-05-08T09:16:06Z</time>
      </trkpt>
      <trkpt lat="45.0134" lon="6.41198">
        <ele>3097.1</ele>
        <time>2013-05-08T09:16:09Z</time>
      </trkpt>
      <trkpt lat="45.01345" lon="6.41207">
        <ele>3103.2</ele>
        <time>2013-05-08T09:16:19Z</time>
      </trkpt>
      <trkpt lat="45.01353" lon="6.41208">
        <ele>3104.3</ele>
        <time>2013-05-08T09:16:22Z</time>
      </trkpt>
      <trkpt lat="45.0135" lon="6.41227">
        <ele>3106</ele>
        <time>2013-05-08T09:16:29Z</time>
      </trkpt>
      <trkpt lat="45.01347" lon="6.41215">
        <ele>3106.8</ele>
        <time>2013-05-08T09:16:36Z</time>
      </trkpt>
      <trkpt lat="45.0135" lon="6.41203">
        <ele>3089.9</ele>
        <time>2013-05-08T09:21:18Z</time>
      </trkpt>
      <trkpt lat="45.0135" lon="6.41216">
        <ele>3101.3</ele>
        <time>2013-05-08T09:23:27Z</time>
      </trkpt>
      <trkpt lat="45.01354" lon="6.41207">
        <ele>3097.9</ele>
        <time>2013-05-08T09:24:30Z</time>
      </trkpt>
      <trkpt lat="45.01361" lon="6.41205">
        <ele>3097.2</ele>
        <time>2013-05-08T09:24:34Z</time>
      </trkpt>
      <trkpt lat="45.01365" lon="6.41194">
        <ele>3092.3</ele>
        <time>2013-05-08T09:24:39Z</time>
      </trkpt>
      <trkpt lat="45.0137" lon="6.41187">
        <ele>3083.7</ele>
        <time>2013-05-08T09:24:46Z</time>
      </trkpt>
      <trkpt lat="45.01376" lon="6.41178">
        <ele>3070.1</ele>
        <time>2013-05-08T09:25:10Z</time>
      </trkpt>
      <trkpt lat="45.01382" lon="6.41178">
        <ele>3069</ele>
        <time>2013-05-08T09:25:13Z</time>
      </trkpt>
      <trkpt lat="45.0139" lon="6.41183">
        <ele>3064.9</ele>
        <time>2013-05-08T09:25:17Z</time>
      </trkpt>
      <trkpt lat="45.01397" lon="6.41191">
        <ele>3062.4</ele>
        <time>2013-05-08T09:25:20Z</time>
      </trkpt>
      <trkpt lat="45.01401" lon="6.4118">
        <ele>3058.5</ele>
        <time>2013-05-08T09:25:25Z</time>
      </trkpt>
      <trkpt lat="45.01407" lon="6.41172">
        <ele>3053</ele>
        <time>2013-05-08T09:25:30Z</time>
      </trkpt>
      <trkpt lat="45.01413" lon="6.41163">
        <ele>3039.5</ele>
        <time>2013-05-08T09:25:52Z</time>
      </trkpt>
      <trkpt lat="45.01417" lon="6.41154">
        <ele>3036.9</ele>
        <time>2013-05-08T09:26:10Z</time>
      </trkpt>
      <trkpt lat="45.01426" lon="6.41152">
        <ele>3033.4</ele>
        <time>2013-05-08T09:26:14Z</time>
      </trkpt>
      <trkpt lat="45.01428" lon="6.41141">
        <ele>3030.5</ele>
        <time>2013-05-08T09:26:17Z</time>
      </trkpt>
      <trkpt lat="45.01434" lon="6.41133">
        <ele>3022.8</ele>
        <time>2013-05-08T09:26:22Z</time>
      </trkpt>
      <trkpt lat="45.01441" lon="6.41129">
        <ele>3017.8</ele>
        <time>2013-05-08T09:26:27Z</time>
      </trkpt>
      <trkpt lat="45.01443" lon="6.41121">
        <ele>3014.4</ele>
        <time>2013-05-08T09:26:29Z</time>
      </trkpt>
      <trkpt lat="45.01451" lon="6.41114">
        <ele>3008.7</ele>
        <time>2013-05-08T09:26:33Z</time>
      </trkpt>
      <trkpt lat="45.01457" lon="6.4111">
        <ele>3005.1</ele>
        <time>2013-05-08T09:26:36Z</time>
      </trkpt>
      <trkpt lat="45.01464" lon="6.41107">
        <ele>3001.5</ele>
        <time>2013-05-08T09:26:38Z</time>
      </trkpt>
      <trkpt lat="45.01471" lon="6.41106">
        <ele>2994.8</ele>
        <time>2013-05-08T09:26:41Z</time>
      </trkpt>
      <trkpt lat="45.01479" lon="6.41107">
        <ele>2989.5</ele>
        <time>2013-05-08T09:26:44Z</time>
      </trkpt>
      <trkpt lat="45.01488" lon="6.41109">
        <ele>2980.2</ele>
        <time>2013-05-08T09:29:09Z</time>
      </trkpt>
      <trkpt lat="45.01481" lon="6.41117">
        <ele>2980</ele>
        <time>2013-05-08T09:30:31Z</time>
      </trkpt>
      <trkpt lat="45.01489" lon="6.41113">
        <ele>2980.9</ele>
        <time>2013-05-08T09:32:03Z</time>
      </trkpt>
      <trkpt lat="45.0148" lon="6.41114">
        <ele>2978.4</ele>
        <time>2013-05-08T09:35:01Z</time>
      </trkpt>
      <trkpt lat="45.01488" lon="6.41119">
        <ele>2978</ele>
        <time>2013-05-08T09:35:49Z</time>
      </trkpt>
      <trkpt lat="45.01492" lon="6.41112">
        <ele>2977.4</ele>
        <time>2013-05-08T09:35:51Z</time>
      </trkpt>
      <trkpt lat="45.01496" lon="6.41103">
        <ele>2976.5</ele>
        <time>2013-05-08T09:35:53Z</time>
      </trkpt>
      <trkpt lat="45.01502" lon="6.41093">
        <ele>2975.4</ele>
        <time>2013-05-08T09:35:55Z</time>
      </trkpt>
      <trkpt lat="45.01507" lon="6.41084">
        <ele>2973.8</ele>
        <time>2013-05-08T09:35:57Z</time>
      </trkpt>
      <trkpt lat="45.01513" lon="6.41075">
        <ele>2971.7</ele>
        <time>2013-05-08T09:36:00Z</time>
      </trkpt>
      <trkpt lat="45.01518" lon="6.41067">
        <ele>2970.3</ele>
        <time>2013-05-08T09:36:03Z</time>
      </trkpt>
      <trkpt lat="45.01527" lon="6.41067">
        <ele>2965.8</ele>
        <time>2013-05-08T09:36:08Z</time>
      </trkpt>
      <trkpt lat="45.01528" lon="6.41079">
        <ele>2955</ele>
        <time>2013-05-08T09:36:15Z</time>
      </trkpt>
      <trkpt lat="45.01526" lon="6.41088">
        <ele>2952.2</ele>
        <time>2013-05-08T09:36:17Z</time>
      </trkpt>
      <trkpt lat="45.01523" lon="6.41097">
        <ele>2949</ele>
        <time>2013-05-08T09:36:19Z</time>
      </trkpt>
      <trkpt lat="45.01521" lon="6.41106">
        <ele>2947.5</ele>
        <time>2013-05-08T09:36:21Z</time>
      </trkpt>
      <trkpt lat="45.01519" lon="6.41116">
        <ele>2946</ele>
        <time>2013-05-08T09:36:23Z</time>
      </trkpt>
      <trkpt lat="45.01517" lon="6.41127">
        <ele>2944.2</ele>
        <time>2013-05-08T09:36:25Z</time>
      </trkpt>
      <trkpt lat="45.01517" lon="6.41136">
        <ele>2943</ele>
        <time>2013-05-08T09:36:27Z</time>
      </trkpt>
      <trkpt lat="45.01515" lon="6.41147">
        <ele>2941.8</ele>
        <time>2013-05-08T09:36:30Z</time>
      </trkpt>
      <trkpt lat="45.01516" lon="6.41158">
        <ele>2940.5</ele>
        <time>2013-05-08T09:36:36Z</time>
      </trkpt>
      <trkpt lat="45.01517" lon="6.4117">
        <ele>2938.7</ele>
        <time>2013-05-08T09:36:47Z</time>
      </trkpt>
      <trkpt lat="45.01518" lon="6.41179">
        <ele>2938.3</ele>
        <time>2013-05-08T09:36:49Z</time>
      </trkpt>
      <trkpt lat="45.01521" lon="6.41191">
        <ele>2937.7</ele>
        <time>2013-05-08T09:36:52Z</time>
      </trkpt>
      <trkpt lat="45.01523" lon="6.41202">
        <ele>2936.7</ele>
        <time>2013-05-08T09:36:55Z</time>
      </trkpt>
      <trkpt lat="45.01527" lon="6.4121">
        <ele>2936.1</ele>
        <time>2013-05-08T09:36:57Z</time>
      </trkpt>
      <trkpt lat="45.01533" lon="6.41218">
        <ele>2935</ele>
        <time>2013-05-08T09:37:00Z</time>
      </trkpt>
      <trkpt lat="45.01537" lon="6.41224">
        <ele>2934.7</ele>
        <time>2013-05-08T09:37:02Z</time>
      </trkpt>
      <trkpt lat="45.01543" lon="6.41233">
        <ele>2933.4</ele>
        <time>2013-05-08T09:37:05Z</time>
      </trkpt>
      <trkpt lat="45.0155" lon="6.41227">
        <ele>2929.7</ele>
        <time>2013-05-08T09:37:19Z</time>
      </trkpt>
      <trkpt lat="45.01558" lon="6.41226">
        <ele>2927.7</ele>
        <time>2013-05-08T09:37:23Z</time>
      </trkpt>
      <trkpt lat="45.01564" lon="6.41217">
        <ele>2924.7</ele>
        <time>2013-05-08T09:37:26Z</time>
      </trkpt>
      <trkpt lat="45.01571" lon="6.41214">
        <ele>2918.9</ele>
        <time>2013-05-08T09:37:29Z</time>
      </trkpt>
      <trkpt lat="45.0158" lon="6.41212">
        <ele>2914.4</ele>
        <time>2013-05-08T09:37:32Z</time>
      </trkpt>
      <trkpt lat="45.01586" lon="6.41205">
        <ele>2910.6</ele>
        <time>2013-05-08T09:37:35Z</time>
      </trkpt>
      <trkpt lat="45.01594" lon="6.41199">
        <ele>2902.2</ele>
        <time>2013-05-08T09:37:40Z</time>
      </trkpt>
      <trkpt lat="45.016" lon="6.41191">
        <ele>2893.4</ele>
        <time>2013-05-08T09:37:45Z</time>
      </trkpt>
      <trkpt lat="45.01609" lon="6.41191">
        <ele>2889.3</ele>
        <time>2013-05-08T09:37:48Z</time>
      </trkpt>
      <trkpt lat="45.01611" lon="6.4118">
        <ele>2884.6</ele>
        <time>2013-05-08T09:37:52Z</time>
      </trkpt>
      <trkpt lat="45.01616" lon="6.41171">
        <ele>2881.5</ele>
        <time>2013-05-08T09:37:55Z</time>
      </trkpt>
      <trkpt lat="45.01622" lon="6.41163">
        <ele>2864.7</ele>
        <time>2013-05-08T09:38:38Z</time>
      </trkpt>
      <trkpt lat="45.01625" lon="6.41155">
        <ele>2861.1</ele>
        <time>2013-05-08T09:38:42Z</time>
      </trkpt>
      <trkpt lat="45.01629" lon="6.41146">
        <ele>2858.6</ele>
        <time>2013-05-08T09:38:44Z</time>
      </trkpt>
      <trkpt lat="45.01629" lon="6.41136">
        <ele>2856.4</ele>
        <time>2013-05-08T09:38:46Z</time>
      </trkpt>
      <trkpt lat="45.01626" lon="6.41126">
        <ele>2854.4</ele>
        <time>2013-05-08T09:38:48Z</time>
      </trkpt>
      <trkpt lat="45.01632" lon="6.41116">
        <ele>2849.9</ele>
        <time>2013-05-08T09:38:52Z</time>
      </trkpt>
      <trkpt lat="45.01634" lon="6.41107">
        <ele>2847.3</ele>
        <time>2013-05-08T09:38:54Z</time>
      </trkpt>
      <trkpt lat="45.01643" lon="6.41107">
        <ele>2841</ele>
        <time>2013-05-08T09:38:58Z</time>
      </trkpt>
      <trkpt lat="45.01645" lon="6.41096">
        <ele>2836.8</ele>
        <time>2013-05-08T09:39:01Z</time>
      </trkpt>
      <trkpt lat="45.01653" lon="6.411">
        <ele>2831.4</ele>
        <time>2013-05-08T09:39:06Z</time>
      </trkpt>
      <trkpt lat="45.0166" lon="6.41096">
        <ele>2828.2</ele>
        <time>2013-05-08T09:39:19Z</time>
      </trkpt>
      <trkpt lat="45.01662" lon="6.41083">
        <ele>2826</ele>
        <time>2013-05-08T09:39:24Z</time>
      </trkpt>
      <trkpt lat="45.01661" lon="6.41074">
        <ele>2825.4</ele>
        <time>2013-05-08T09:39:26Z</time>
      </trkpt>
      <trkpt lat="45.01661" lon="6.41062">
        <ele>2824.8</ele>
        <time>2013-05-08T09:39:28Z</time>
      </trkpt>
      <trkpt lat="45.01669" lon="6.41057">
        <ele>2822.5</ele>
        <time>2013-05-08T09:39:33Z</time>
      </trkpt>
      <trkpt lat="45.01675" lon="6.41059">
        <ele>2820</ele>
        <time>2013-05-08T09:39:35Z</time>
      </trkpt>
      <trkpt lat="45.01678" lon="6.41064">
        <ele>2818.8</ele>
        <time>2013-05-08T09:39:36Z</time>
      </trkpt>
      <trkpt lat="45.01684" lon="6.4107">
        <ele>2814.7</ele>
        <time>2013-05-08T09:39:39Z</time>
      </trkpt>
      <trkpt lat="45.01693" lon="6.41073">
        <ele>2810.2</ele>
        <time>2013-05-08T09:39:42Z</time>
      </trkpt>
      <trkpt lat="45.01699" lon="6.41067">
        <ele>2804.3</ele>
        <time>2013-05-08T09:39:46Z</time>
      </trkpt>
      <trkpt lat="45.01706" lon="6.41067">
        <ele>2800.5</ele>
        <time>2013-05-08T09:39:48Z</time>
      </trkpt>
      <trkpt lat="45.01708" lon="6.41058">
        <ele>2795.3</ele>
        <time>2013-05-08T09:39:50Z</time>
      </trkpt>
      <trkpt lat="45.01708" lon="6.41051">
        <ele>2793.6</ele>
        <time>2013-05-08T09:39:51Z</time>
      </trkpt>
      <trkpt lat="45.01713" lon="6.41041">
        <ele>2790.4</ele>
        <time>2013-05-08T09:39:53Z</time>
      </trkpt>
      <trkpt lat="45.01717" lon="6.41031">
        <ele>2782.7</ele>
        <time>2013-05-08T09:39:56Z</time>
      </trkpt>
      <trkpt lat="45.01724" lon="6.41031">
        <ele>2780</ele>
        <time>2013-05-08T09:39:58Z</time>
      </trkpt>
      <trkpt lat="45.01731" lon="6.41035">
        <ele>2777.3</ele>
        <time>2013-05-08T09:40:00Z</time>
      </trkpt>
      <trkpt lat="45.01738" lon="6.41039">
        <ele>2773.9</ele>
        <time>2013-05-08T09:40:02Z</time>
      </trkpt>
      <trkpt lat="45.01743" lon="6.41042">
        <ele>2772.8</ele>
        <time>2013-05-08T09:40:03Z</time>
      </trkpt>
      <trkpt lat="45.01747" lon="6.41046">
        <ele>2771.8</ele>
        <time>2013-05-08T09:40:04Z</time>
      </trkpt>
      <trkpt lat="45.01753" lon="6.4105">
        <ele>2771.1</ele>
        <time>2013-05-08T09:40:05Z</time>
      </trkpt>
      <trkpt lat="45.01758" lon="6.41055">
        <ele>2769.8</ele>
        <time>2013-05-08T09:40:06Z</time>
      </trkpt>
      <trkpt lat="45.01763" lon="6.4106">
        <ele>2768.9</ele>
        <time>2013-05-08T09:40:07Z</time>
      </trkpt>
      <trkpt lat="45.01768" lon="6.41067">
        <ele>2766.7</ele>
        <time>2013-05-08T09:40:09Z</time>
      </trkpt>
      <trkpt lat="45.01773" lon="6.41073">
        <ele>2764.5</ele>
        <time>2013-05-08T09:40:11Z</time>
      </trkpt>
      <trkpt lat="45.01777" lon="6.4108">
        <ele>2762.9</ele>
        <time>2013-05-08T09:40:13Z</time>
      </trkpt>
      <trkpt lat="45.01781" lon="6.41089">
        <ele>2762</ele>
        <time>2013-05-08T09:40:15Z</time>
      </trkpt>
      <trkpt lat="45.01784" lon="6.411">
        <ele>2761.2</ele>
        <time>2013-05-08T09:40:17Z</time>
      </trkpt>
      <trkpt lat="45.01792" lon="6.41095">
        <ele>2758.7</ele>
        <time>2013-05-08T09:40:20Z</time>
      </trkpt>
      <trkpt lat="45.018" lon="6.41092">
        <ele>2754.3</ele>
        <time>2013-05-08T09:40:24Z</time>
      </trkpt>
      <trkpt lat="45.01806" lon="6.41096">
        <ele>2751.2</ele>
        <time>2013-05-08T09:40:26Z</time>
      </trkpt>
      <trkpt lat="45.01808" lon="6.41103">
        <ele>2749.5</ele>
        <time>2013-05-08T09:40:27Z</time>
      </trkpt>
      <trkpt lat="45.0181" lon="6.41109">
        <ele>2748.1</ele>
        <time>2013-05-08T09:40:28Z</time>
      </trkpt>
      <trkpt lat="45.01813" lon="6.41116">
        <ele>2747.2</ele>
        <time>2013-05-08T09:40:29Z</time>
      </trkpt>
      <trkpt lat="45.01815" lon="6.41123">
        <ele>2745.6</ele>
        <time>2013-05-08T09:40:30Z</time>
      </trkpt>
      <trkpt lat="45.01817" lon="6.41129">
        <ele>2744.5</ele>
        <time>2013-05-08T09:40:31Z</time>
      </trkpt>
      <trkpt lat="45.0182" lon="6.41135">
        <ele>2743.6</ele>
        <time>2013-05-08T09:40:32Z</time>
      </trkpt>
      <trkpt lat="45.01824" lon="6.41144">
        <ele>2740.6</ele>
        <time>2013-05-08T09:40:36Z</time>
      </trkpt>
      <trkpt lat="45.01829" lon="6.41139">
        <ele>2738.4</ele>
        <time>2013-05-08T09:40:39Z</time>
      </trkpt>
      <trkpt lat="45.01837" lon="6.4114">
        <ele>2737.8</ele>
        <time>2013-05-08T09:40:41Z</time>
      </trkpt>
      <trkpt lat="45.01845" lon="6.41143">
        <ele>2736.1</ele>
        <time>2013-05-08T09:40:43Z</time>
      </trkpt>
      <trkpt lat="45.01851" lon="6.41142">
        <ele>2734.8</ele>
        <time>2013-05-08T09:40:44Z</time>
      </trkpt>
      <trkpt lat="45.01856" lon="6.41145">
        <ele>2733.8</ele>
        <time>2013-05-08T09:40:45Z</time>
      </trkpt>
      <trkpt lat="45.0186" lon="6.41151">
        <ele>2731.8</ele>
        <time>2013-05-08T09:40:46Z</time>
      </trkpt>
      <trkpt lat="45.01863" lon="6.41162">
        <ele>2729.2</ele>
        <time>2013-05-08T09:40:48Z</time>
      </trkpt>
      <trkpt lat="45.01863" lon="6.41174">
        <ele>2725.8</ele>
        <time>2013-05-08T09:40:53Z</time>
      </trkpt>
      <trkpt lat="45.01868" lon="6.41183">
        <ele>2724.9</ele>
        <time>2013-05-08T09:44:28Z</time>
      </trkpt>
      <trkpt lat="45.0187" lon="6.41195">
        <ele>2724.3</ele>
        <time>2013-05-08T09:44:32Z</time>
      </trkpt>
      <trkpt lat="45.01869" lon="6.41204">
        <ele>2723.4</ele>
        <time>2013-05-08T09:44:34Z</time>
      </trkpt>
      <trkpt lat="45.01868" lon="6.41217">
        <ele>2722</ele>
        <time>2013-05-08T09:44:37Z</time>
      </trkpt>
      <trkpt lat="45.01867" lon="6.41229">
        <ele>2720</ele>
        <time>2013-05-08T09:44:41Z</time>
      </trkpt>
      <trkpt lat="45.01871" lon="6.4124">
        <ele>2717</ele>
        <time>2013-05-08T09:44:46Z</time>
      </trkpt>
      <trkpt lat="45.01868" lon="6.4125">
        <ele>2715.4</ele>
        <time>2013-05-08T09:44:48Z</time>
      </trkpt>
      <trkpt lat="45.01865" lon="6.41261">
        <ele>2713.6</ele>
        <time>2013-05-08T09:44:50Z</time>
      </trkpt>
      <trkpt lat="45.01864" lon="6.41268">
        <ele>2712.1</ele>
        <time>2013-05-08T09:44:51Z</time>
      </trkpt>
      <trkpt lat="45.01863" lon="6.41275">
        <ele>2711</ele>
        <time>2013-05-08T09:44:52Z</time>
      </trkpt>
      <trkpt lat="45.01863" lon="6.41283">
        <ele>2709.2</ele>
        <time>2013-05-08T09:44:53Z</time>
      </trkpt>
      <trkpt lat="45.01863" lon="6.41291">
        <ele>2707.9</ele>
        <time>2013-05-08T09:44:54Z</time>
      </trkpt>
      <trkpt lat="45.01862" lon="6.413">
        <ele>2706.9</ele>
        <time>2013-05-08T09:44:55Z</time>
      </trkpt>
      <trkpt lat="45.01861" lon="6.41308">
        <ele>2705.8</ele>
        <time>2013-05-08T09:44:56Z</time>
      </trkpt>
      <trkpt lat="45.0186" lon="6.41315">
        <ele>2705</ele>
        <time>2013-05-08T09:44:57Z</time>
      </trkpt>
      <trkpt lat="45.01858" lon="6.41323">
        <ele>2703.3</ele>
        <time>2013-05-08T09:44:58Z</time>
      </trkpt>
      <trkpt lat="45.01856" lon="6.41332">
        <ele>2700.2</ele>
        <time>2013-05-08T09:45:00Z</time>
      </trkpt>
      <trkpt lat="45.01855" lon="6.41338">
        <ele>2698.9</ele>
        <time>2013-05-08T09:45:01Z</time>
      </trkpt>
      <trkpt lat="45.01853" lon="6.41345">
        <ele>2697.8</ele>
        <time>2013-05-08T09:45:02Z</time>
      </trkpt>
      <trkpt lat="45.01851" lon="6.41352">
        <ele>2696.8</ele>
        <time>2013-05-08T09:45:03Z</time>
      </trkpt>
      <trkpt lat="45.01849" lon="6.41359">
        <ele>2696</ele>
        <time>2013-05-08T09:45:04Z</time>
      </trkpt>
      <trkpt lat="45.01846" lon="6.41369">
        <ele>2693.9</ele>
        <time>2013-05-08T09:45:06Z</time>
      </trkpt>
      <trkpt lat="45.01855" lon="6.41372">
        <ele>2688.7</ele>
        <time>2013-05-08T09:45:10Z</time>
      </trkpt>
      <trkpt lat="45.01862" lon="6.41373">
        <ele>2686</ele>
        <time>2013-05-08T09:45:12Z</time>
      </trkpt>
      <trkpt lat="45.01869" lon="6.41374">
        <ele>2681.9</ele>
        <time>2013-05-08T09:45:15Z</time>
      </trkpt>
      <trkpt lat="45.01879" lon="6.41375">
        <ele>2671</ele>
        <time>2013-05-08T09:45:19Z</time>
      </trkpt>
      <trkpt lat="45.01886" lon="6.41382">
        <ele>2666.3</ele>
        <time>2013-05-08T09:45:22Z</time>
      </trkpt>
      <trkpt lat="45.01895" lon="6.41383">
        <ele>2662.7</ele>
        <time>2013-05-08T09:45:24Z</time>
      </trkpt>
      <trkpt lat="45.01901" lon="6.41388">
        <ele>2660.1</ele>
        <time>2013-05-08T09:45:26Z</time>
      </trkpt>
      <trkpt lat="45.01906" lon="6.41393">
        <ele>2656.2</ele>
        <time>2013-05-08T09:45:28Z</time>
      </trkpt>
      <trkpt lat="45.01913" lon="6.41396">
        <ele>2651.3</ele>
        <time>2013-05-08T09:45:30Z</time>
      </trkpt>
      <trkpt lat="45.01919" lon="6.41403">
        <ele>2646.6</ele>
        <time>2013-05-08T09:45:32Z</time>
      </trkpt>
      <trkpt lat="45.01924" lon="6.41403">
        <ele>2645.1</ele>
        <time>2013-05-08T09:45:33Z</time>
      </trkpt>
      <trkpt lat="45.01929" lon="6.41406">
        <ele>2643.2</ele>
        <time>2013-05-08T09:45:34Z</time>
      </trkpt>
      <trkpt lat="45.01933" lon="6.41407">
        <ele>2641.7</ele>
        <time>2013-05-08T09:45:35Z</time>
      </trkpt>
      <trkpt lat="45.01938" lon="6.41406">
        <ele>2638.9</ele>
        <time>2013-05-08T09:45:36Z</time>
      </trkpt>
      <trkpt lat="45.01942" lon="6.41411">
        <ele>2636.9</ele>
        <time>2013-05-08T09:45:37Z</time>
      </trkpt>
      <trkpt lat="45.01946" lon="6.41412">
        <ele>2634</ele>
        <time>2013-05-08T09:45:38Z</time>
      </trkpt>
      <trkpt lat="45.01951" lon="6.41414">
        <ele>2631.8</ele>
        <time>2013-05-08T09:45:39Z</time>
      </trkpt>
      <trkpt lat="45.01956" lon="6.41417">
        <ele>2630.2</ele>
        <time>2013-05-08T09:45:40Z</time>
      </trkpt>
      <trkpt lat="45.01961" lon="6.41421">
        <ele>2628.3</ele>
        <time>2013-05-08T09:45:41Z</time>
      </trkpt>
      <trkpt lat="45.01965" lon="6.41432">
        <ele>2616</ele>
        <time>2013-05-08T09:46:23Z</time>
      </trkpt>
      <trkpt lat="45.01971" lon="6.41423">
        <ele>2615.7</ele>
        <time>2013-05-08T09:46:56Z</time>
      </trkpt>
      <trkpt lat="45.01976" lon="6.41423">
        <ele>2615.8</ele>
        <time>2013-05-08T09:46:57Z</time>
      </trkpt>
      <trkpt lat="45.0198" lon="6.41426">
        <ele>2615.9</ele>
        <time>2013-05-08T09:46:58Z</time>
      </trkpt>
      <trkpt lat="45.01989" lon="6.41427">
        <ele>2613.5</ele>
        <time>2013-05-08T09:47:00Z</time>
      </trkpt>
      <trkpt lat="45.01993" lon="6.4143">
        <ele>2611.8</ele>
        <time>2013-05-08T09:47:01Z</time>
      </trkpt>
      <trkpt lat="45.01997" lon="6.41432">
        <ele>2610.5</ele>
        <time>2013-05-08T09:47:02Z</time>
      </trkpt>
      <trkpt lat="45.02003" lon="6.41428">
        <ele>2609.5</ele>
        <time>2013-05-08T09:47:03Z</time>
      </trkpt>
      <trkpt lat="45.02008" lon="6.41427">
        <ele>2608.2</ele>
        <time>2013-05-08T09:47:04Z</time>
      </trkpt>
      <trkpt lat="45.02014" lon="6.41429">
        <ele>2607.2</ele>
        <time>2013-05-08T09:47:05Z</time>
      </trkpt>
      <trkpt lat="45.02021" lon="6.41427">
        <ele>2604.9</ele>
        <time>2013-05-08T09:47:06Z</time>
      </trkpt>
      <trkpt lat="45.02028" lon="6.41431">
        <ele>2603.1</ele>
        <time>2013-05-08T09:47:07Z</time>
      </trkpt>
      <trkpt lat="45.02035" lon="6.41435">
        <ele>2600.3</ele>
        <time>2013-05-08T09:47:08Z</time>
      </trkpt>
      <trkpt lat="45.02041" lon="6.41433">
        <ele>2598.2</ele>
        <time>2013-05-08T09:47:09Z</time>
      </trkpt>
      <trkpt lat="45.02047" lon="6.41436">
        <ele>2596.6</ele>
        <time>2013-05-08T09:47:10Z</time>
      </trkpt>
      <trkpt lat="45.02053" lon="6.41439">
        <ele>2593.9</ele>
        <time>2013-05-08T09:47:11Z</time>
      </trkpt>
      <trkpt lat="45.0206" lon="6.41436">
        <ele>2591.9</ele>
        <time>2013-05-08T09:47:12Z</time>
      </trkpt>
      <trkpt lat="45.02066" lon="6.41432">
        <ele>2589.9</ele>
        <time>2013-05-08T09:47:13Z</time>
      </trkpt>
      <trkpt lat="45.02072" lon="6.41429">
        <ele>2588.4</ele>
        <time>2013-05-08T09:47:14Z</time>
      </trkpt>
      <trkpt lat="45.02078" lon="6.41427">
        <ele>2587.2</ele>
        <time>2013-05-08T09:47:15Z</time>
      </trkpt>
      <trkpt lat="45.02084" lon="6.41424">
        <ele>2585.6</ele>
        <time>2013-05-08T09:47:16Z</time>
      </trkpt>
      <trkpt lat="45.0209" lon="6.41422">
        <ele>2584.4</ele>
        <time>2013-05-08T09:47:17Z</time>
      </trkpt>
      <trkpt lat="45.02097" lon="6.41419">
        <ele>2582.7</ele>
        <time>2013-05-08T09:47:18Z</time>
      </trkpt>
      <trkpt lat="45.02103" lon="6.41415">
        <ele>2581.4</ele>
        <time>2013-05-08T09:47:19Z</time>
      </trkpt>
      <trkpt lat="45.02109" lon="6.41412">
        <ele>2579.8</ele>
        <time>2013-05-08T09:47:20Z</time>
      </trkpt>
      <trkpt lat="45.02115" lon="6.41409">
        <ele>2578.6</ele>
        <time>2013-05-08T09:47:21Z</time>
      </trkpt>
      <trkpt lat="45.02119" lon="6.41407">
        <ele>2577.7</ele>
        <time>2013-05-08T09:47:22Z</time>
      </trkpt>
      <trkpt lat="45.02126" lon="6.414">
        <ele>2576.3</ele>
        <time>2013-05-08T09:47:24Z</time>
      </trkpt>
      <trkpt lat="45.02131" lon="6.41392">
        <ele>2574.9</ele>
        <time>2013-05-08T09:47:26Z</time>
      </trkpt>
      <trkpt lat="45.02134" lon="6.4138">
        <ele>2572.1</ele>
        <time>2013-05-08T09:47:29Z</time>
      </trkpt>
      <trkpt lat="45.02133" lon="6.4137">
        <ele>2570.2</ele>
        <time>2013-05-08T09:48:33Z</time>
      </trkpt>
      <trkpt lat="45.02141" lon="6.4137">
        <ele>2568.6</ele>
        <time>2013-05-08T09:48:35Z</time>
      </trkpt>
      <trkpt lat="45.02146" lon="6.41366">
        <ele>2566.2</ele>
        <time>2013-05-08T09:48:37Z</time>
      </trkpt>
      <trkpt lat="45.02154" lon="6.41364">
        <ele>2564.2</ele>
        <time>2013-05-08T09:48:39Z</time>
      </trkpt>
      <trkpt lat="45.0216" lon="6.41356">
        <ele>2561.3</ele>
        <time>2013-05-08T09:48:41Z</time>
      </trkpt>
      <trkpt lat="45.02164" lon="6.41355">
        <ele>2559.9</ele>
        <time>2013-05-08T09:48:42Z</time>
      </trkpt>
      <trkpt lat="45.02169" lon="6.41356">
        <ele>2558.8</ele>
        <time>2013-05-08T09:48:43Z</time>
      </trkpt>
      <trkpt lat="45.02177" lon="6.41358">
        <ele>2554.3</ele>
        <time>2013-05-08T09:48:45Z</time>
      </trkpt>
      <trkpt lat="45.02182" lon="6.41351">
        <ele>2549.5</ele>
        <time>2013-05-08T09:48:47Z</time>
      </trkpt>
      <trkpt lat="45.02188" lon="6.41344">
        <ele>2544.1</ele>
        <time>2013-05-08T09:48:49Z</time>
      </trkpt>
      <trkpt lat="45.02194" lon="6.4134">
        <ele>2540.1</ele>
        <time>2013-05-08T09:48:51Z</time>
      </trkpt>
      <trkpt lat="45.02196" lon="6.41335">
        <ele>2538.5</ele>
        <time>2013-05-08T09:48:52Z</time>
      </trkpt>
      <trkpt lat="45.022" lon="6.4133">
        <ele>2536</ele>
        <time>2013-05-08T09:48:53Z</time>
      </trkpt>
      <trkpt lat="45.02204" lon="6.41329">
        <ele>2534.1</ele>
        <time>2013-05-08T09:48:54Z</time>
      </trkpt>
      <trkpt lat="45.0221" lon="6.41327">
        <ele>2530.4</ele>
        <time>2013-05-08T09:48:55Z</time>
      </trkpt>
      <trkpt lat="45.02215" lon="6.41319">
        <ele>2525.6</ele>
        <time>2013-05-08T09:48:57Z</time>
      </trkpt>
      <trkpt lat="45.02223" lon="6.41323">
        <ele>2516.7</ele>
        <time>2013-05-08T09:49:01Z</time>
      </trkpt>
      <trkpt lat="45.02231" lon="6.41329">
        <ele>2509.2</ele>
        <time>2013-05-08T09:49:15Z</time>
      </trkpt>
      <trkpt lat="45.02237" lon="6.41327">
        <ele>2507.8</ele>
        <time>2013-05-08T09:49:17Z</time>
      </trkpt>
      <trkpt lat="45.02244" lon="6.4132">
        <ele>2506</ele>
        <time>2013-05-08T09:49:19Z</time>
      </trkpt>
      <trkpt lat="45.02251" lon="6.41317">
        <ele>2502.6</ele>
        <time>2013-05-08T09:49:21Z</time>
      </trkpt>
      <trkpt lat="45.02259" lon="6.41311">
        <ele>2496.2</ele>
        <time>2013-05-08T09:49:24Z</time>
      </trkpt>
      <trkpt lat="45.02264" lon="6.41308">
        <ele>2490.3</ele>
        <time>2013-05-08T09:49:26Z</time>
      </trkpt>
      <trkpt lat="45.02271" lon="6.41305">
        <ele>2485.5</ele>
        <time>2013-05-08T09:49:28Z</time>
      </trkpt>
      <trkpt lat="45.02279" lon="6.41304">
        <ele>2480.8</ele>
        <time>2013-05-08T09:49:30Z</time>
      </trkpt>
      <trkpt lat="45.02287" lon="6.41303">
        <ele>2474.9</ele>
        <time>2013-05-08T09:49:32Z</time>
      </trkpt>
      <trkpt lat="45.02295" lon="6.41298">
        <ele>2469.2</ele>
        <time>2013-05-08T09:49:34Z</time>
      </trkpt>
      <trkpt lat="45.02301" lon="6.41294">
        <ele>2463.9</ele>
        <time>2013-05-08T09:49:36Z</time>
      </trkpt>
      <trkpt lat="45.02309" lon="6.41291">
        <ele>2458</ele>
        <time>2013-05-08T09:49:38Z</time>
      </trkpt>
      <trkpt lat="45.02316" lon="6.41286">
        <ele>2453.7</ele>
        <time>2013-05-08T09:49:40Z</time>
      </trkpt>
      <trkpt lat="45.02321" lon="6.41288">
        <ele>2451.3</ele>
        <time>2013-05-08T09:49:41Z</time>
      </trkpt>
      <trkpt lat="45.02326" lon="6.41288">
        <ele>2449.4</ele>
        <time>2013-05-08T09:49:42Z</time>
      </trkpt>
      <trkpt lat="45.0233" lon="6.41283">
        <ele>2446.2</ele>
        <time>2013-05-08T09:49:43Z</time>
      </trkpt>
      <trkpt lat="45.02335" lon="6.41282">
        <ele>2443.8</ele>
        <time>2013-05-08T09:49:44Z</time>
      </trkpt>
      <trkpt lat="45.02341" lon="6.41283">
        <ele>2440.2</ele>
        <time>2013-05-08T09:49:45Z</time>
      </trkpt>
      <trkpt lat="45.02344" lon="6.41278">
        <ele>2437.5</ele>
        <time>2013-05-08T09:49:46Z</time>
      </trkpt>
      <trkpt lat="45.02349" lon="6.41274">
        <ele>2435.5</ele>
        <time>2013-05-08T09:49:47Z</time>
      </trkpt>
      <trkpt lat="45.02354" lon="6.41275">
        <ele>2433</ele>
        <time>2013-05-08T09:49:48Z</time>
      </trkpt>
      <trkpt lat="45.0236" lon="6.41276">
        <ele>2431.2</ele>
        <time>2013-05-08T09:49:49Z</time>
      </trkpt>
      <trkpt lat="45.02365" lon="6.41272">
        <ele>2427.9</ele>
        <time>2013-05-08T09:49:50Z</time>
      </trkpt>
      <trkpt lat="45.0237" lon="6.41271">
        <ele>2425.4</ele>
        <time>2013-05-08T09:49:51Z</time>
      </trkpt>
      <trkpt lat="45.02375" lon="6.41272">
        <ele>2421.3</ele>
        <time>2013-05-08T09:49:52Z</time>
      </trkpt>
      <trkpt lat="45.0238" lon="6.41268">
        <ele>2418.3</ele>
        <time>2013-05-08T09:49:53Z</time>
      </trkpt>
      <trkpt lat="45.02384" lon="6.41265">
        <ele>2416</ele>
        <time>2013-05-08T09:49:54Z</time>
      </trkpt>
      <trkpt lat="45.02389" lon="6.41268">
        <ele>2413.1</ele>
        <time>2013-05-08T09:49:55Z</time>
      </trkpt>
      <trkpt lat="45.02395" lon="6.41269">
        <ele>2411</ele>
        <time>2013-05-08T09:49:56Z</time>
      </trkpt>
      <trkpt lat="45.024" lon="6.41263">
        <ele>2407.4</ele>
        <time>2013-05-08T09:49:57Z</time>
      </trkpt>
      <trkpt lat="45.02407" lon="6.41259">
        <ele>2404.7</ele>
        <time>2013-05-08T09:49:58Z</time>
      </trkpt>
      <trkpt lat="45.02413" lon="6.4126">
        <ele>2402.7</ele>
        <time>2013-05-08T09:49:59Z</time>
      </trkpt>
      <trkpt lat="45.02419" lon="6.4126">
        <ele>2399.2</ele>
        <time>2013-05-08T09:50:00Z</time>
      </trkpt>
      <trkpt lat="45.02424" lon="6.41256">
        <ele>2396.6</ele>
        <time>2013-05-08T09:50:01Z</time>
      </trkpt>
      <trkpt lat="45.0243" lon="6.41256">
        <ele>2393.1</ele>
        <time>2013-05-08T09:50:02Z</time>
      </trkpt>
      <trkpt lat="45.02436" lon="6.41259">
        <ele>2390.5</ele>
        <time>2013-05-08T09:50:03Z</time>
      </trkpt>
      <trkpt lat="45.0244" lon="6.41253">
        <ele>2386.8</ele>
        <time>2013-05-08T09:50:04Z</time>
      </trkpt>
      <trkpt lat="45.02444" lon="6.41251">
        <ele>2384.1</ele>
        <time>2013-05-08T09:50:05Z</time>
      </trkpt>
      <trkpt lat="45.02449" lon="6.41253">
        <ele>2382</ele>
        <time>2013-05-08T09:50:06Z</time>
      </trkpt>
      <trkpt lat="45.02454" lon="6.41252">
        <ele>2378.4</ele>
        <time>2013-05-08T09:50:07Z</time>
      </trkpt>
      <trkpt lat="45.02459" lon="6.41247">
        <ele>2375.8</ele>
        <time>2013-05-08T09:50:08Z</time>
      </trkpt>
      <trkpt lat="45.02468" lon="6.41245">
        <ele>2370.4</ele>
        <time>2013-05-08T09:50:10Z</time>
      </trkpt>
      <trkpt lat="45.02484" lon="6.41244">
        <ele>2360</ele>
        <time>2013-05-08T09:50:13Z</time>
      </trkpt>
      <trkpt lat="45.02479" lon="6.41253">
        <ele>2351.4</ele>
        <time>2013-05-08T09:50:32Z</time>
      </trkpt>
      <trkpt lat="45.02473" lon="6.41262">
        <ele>2350.5</ele>
        <time>2013-05-08T09:52:07Z</time>
      </trkpt>
      <trkpt lat="45.02464" lon="6.41264">
        <ele>2351.3</ele>
        <time>2013-05-08T09:52:21Z</time>
      </trkpt>
      <trkpt lat="45.02456" lon="6.41259">
        <ele>2350.9</ele>
        <time>2013-05-08T09:52:36Z</time>
      </trkpt>
      <trkpt lat="45.02461" lon="6.41251">
        <ele>2350.6</ele>
        <time>2013-05-08T09:52:58Z</time>
      </trkpt>
      <trkpt lat="45.02465" lon="6.41248">
        <ele>2350.5</ele>
        <time>2013-05-08T09:52:59Z</time>
      </trkpt>
      <trkpt lat="45.0247" lon="6.41246">
        <ele>2349.6</ele>
        <time>2013-05-08T09:53:00Z</time>
      </trkpt>
      <trkpt lat="45.02476" lon="6.41245">
        <ele>2348.9</ele>
        <time>2013-05-08T09:53:01Z</time>
      </trkpt>
      <trkpt lat="45.02482" lon="6.41242">
        <ele>2346.8</ele>
        <time>2013-05-08T09:53:02Z</time>
      </trkpt>
      <trkpt lat="45.02489" lon="6.41241">
        <ele>2345.2</ele>
        <time>2013-05-08T09:53:03Z</time>
      </trkpt>
      <trkpt lat="45.02496" lon="6.41237">
        <ele>2344</ele>
        <time>2013-05-08T09:53:04Z</time>
      </trkpt>
      <trkpt lat="45.02502" lon="6.41236">
        <ele>2341.7</ele>
        <time>2013-05-08T09:53:05Z</time>
      </trkpt>
      <trkpt lat="45.02508" lon="6.41234">
        <ele>2339.9</ele>
        <time>2013-05-08T09:53:06Z</time>
      </trkpt>
      <trkpt lat="45.02514" lon="6.41232">
        <ele>2336.5</ele>
        <time>2013-05-08T09:53:07Z</time>
      </trkpt>
      <trkpt lat="45.02521" lon="6.4123">
        <ele>2334</ele>
        <time>2013-05-08T09:53:08Z</time>
      </trkpt>
      <trkpt lat="45.02526" lon="6.41224">
        <ele>2330.3</ele>
        <time>2013-05-08T09:53:09Z</time>
      </trkpt>
      <trkpt lat="45.02532" lon="6.41219">
        <ele>2327.6</ele>
        <time>2013-05-08T09:53:10Z</time>
      </trkpt>
      <trkpt lat="45.02538" lon="6.41216">
        <ele>2325.6</ele>
        <time>2013-05-08T09:53:11Z</time>
      </trkpt>
      <trkpt lat="45.02543" lon="6.4121">
        <ele>2322.2</ele>
        <time>2013-05-08T09:53:12Z</time>
      </trkpt>
      <trkpt lat="45.0255" lon="6.41206">
        <ele>2319.7</ele>
        <time>2013-05-08T09:53:13Z</time>
      </trkpt>
      <trkpt lat="45.02555" lon="6.41197">
        <ele>2307.8</ele>
        <time>2013-05-08T09:53:17Z</time>
      </trkpt>
      <trkpt lat="45.02563" lon="6.41193">
        <ele>2299.9</ele>
        <time>2013-05-08T09:54:25Z</time>
      </trkpt>
      <trkpt lat="45.02566" lon="6.41186">
        <ele>2299.5</ele>
        <time>2013-05-08T09:54:26Z</time>
      </trkpt>
      <trkpt lat="45.02569" lon="6.4118">
        <ele>2299.2</ele>
        <time>2013-05-08T09:54:27Z</time>
      </trkpt>
      <trkpt lat="45.02572" lon="6.41174">
        <ele>2299.1</ele>
        <time>2013-05-08T09:54:28Z</time>
      </trkpt>
      <trkpt lat="45.02576" lon="6.41169">
        <ele>2299</ele>
        <time>2013-05-08T09:54:29Z</time>
      </trkpt>
      <trkpt lat="45.02581" lon="6.41159">
        <ele>2298</ele>
        <time>2013-05-08T09:54:31Z</time>
      </trkpt>
      <trkpt lat="45.02585" lon="6.41151">
        <ele>2297.4</ele>
        <time>2013-05-08T09:54:33Z</time>
      </trkpt>
      <trkpt lat="45.02588" lon="6.41143">
        <ele>2296.6</ele>
        <time>2013-05-08T09:54:35Z</time>
      </trkpt>
      <trkpt lat="45.02591" lon="6.41133">
        <ele>2295.7</ele>
        <time>2013-05-08T09:54:37Z</time>
      </trkpt>
      <trkpt lat="45.02594" lon="6.41122">
        <ele>2294.8</ele>
        <time>2013-05-08T09:54:39Z</time>
      </trkpt>
      <trkpt lat="45.02596" lon="6.41111">
        <ele>2294</ele>
        <time>2013-05-08T09:54:41Z</time>
      </trkpt>
      <trkpt lat="45.02599" lon="6.41099">
        <ele>2292.1</ele>
        <time>2013-05-08T09:54:44Z</time>
      </trkpt>
      <trkpt lat="45.026" lon="6.41087">
        <ele>2289.5</ele>
        <time>2013-05-08T09:54:50Z</time>
      </trkpt>
      <trkpt lat="45.02607" lon="6.41081">
        <ele>2285.9</ele>
        <time>2013-05-08T09:55:24Z</time>
      </trkpt>
      <trkpt lat="45.02614" lon="6.4108">
        <ele>2283.7</ele>
        <time>2013-05-08T09:55:26Z</time>
      </trkpt>
      <trkpt lat="45.0262" lon="6.41076">
        <ele>2279.6</ele>
        <time>2013-05-08T09:55:28Z</time>
      </trkpt>
      <trkpt lat="45.02627" lon="6.41072">
        <ele>2274.3</ele>
        <time>2013-05-08T09:55:30Z</time>
      </trkpt>
      <trkpt lat="45.02635" lon="6.41068">
        <ele>2270.1</ele>
        <time>2013-05-08T09:55:32Z</time>
      </trkpt>
      <trkpt lat="45.02641" lon="6.41062">
        <ele>2265.7</ele>
        <time>2013-05-08T09:55:34Z</time>
      </trkpt>
      <trkpt lat="45.02648" lon="6.41059">
        <ele>2260.3</ele>
        <time>2013-05-08T09:55:36Z</time>
      </trkpt>
      <trkpt lat="45.02656" lon="6.41056">
        <ele>2255.9</ele>
        <time>2013-05-08T09:55:38Z</time>
      </trkpt>
      <trkpt lat="45.0266" lon="6.41053">
        <ele>2252.6</ele>
        <time>2013-05-08T09:55:39Z</time>
      </trkpt>
      <trkpt lat="45.02668" lon="6.4105">
        <ele>2247.3</ele>
        <time>2013-05-08T09:55:41Z</time>
      </trkpt>
      <trkpt lat="45.02676" lon="6.41047">
        <ele>2243.6</ele>
        <time>2013-05-08T09:55:43Z</time>
      </trkpt>
      <trkpt lat="45.02684" lon="6.41047">
        <ele>2239</ele>
        <time>2013-05-08T09:55:45Z</time>
      </trkpt>
      <trkpt lat="45.02691" lon="6.41039">
        <ele>2232.3</ele>
        <time>2013-05-08T09:55:47Z</time>
      </trkpt>
      <trkpt lat="45.02696" lon="6.41039">
        <ele>2229.1</ele>
        <time>2013-05-08T09:55:48Z</time>
      </trkpt>
      <trkpt lat="45.02701" lon="6.41041">
        <ele>2226.7</ele>
        <time>2013-05-08T09:55:49Z</time>
      </trkpt>
      <trkpt lat="45.02708" lon="6.41033">
        <ele>2221.9</ele>
        <time>2013-05-08T09:55:51Z</time>
      </trkpt>
      <trkpt lat="45.02713" lon="6.41034">
        <ele>2219.7</ele>
        <time>2013-05-08T09:55:52Z</time>
      </trkpt>
      <trkpt lat="45.0272" lon="6.41034">
        <ele>2216.2</ele>
        <time>2013-05-08T09:55:53Z</time>
      </trkpt>
      <trkpt lat="45.02724" lon="6.41031">
        <ele>2213.6</ele>
        <time>2013-05-08T09:55:54Z</time>
      </trkpt>
      <trkpt lat="45.02728" lon="6.41025">
        <ele>2211.6</ele>
        <time>2013-05-08T09:55:55Z</time>
      </trkpt>
      <trkpt lat="45.02733" lon="6.41024">
        <ele>2209</ele>
        <time>2013-05-08T09:55:56Z</time>
      </trkpt>
      <trkpt lat="45.02739" lon="6.41024">
        <ele>2207.1</ele>
        <time>2013-05-08T09:55:57Z</time>
      </trkpt>
      <trkpt lat="45.02743" lon="6.41019">
        <ele>2203.8</ele>
        <time>2013-05-08T09:55:58Z</time>
      </trkpt>
      <trkpt lat="45.02745" lon="6.41013">
        <ele>2201.3</ele>
        <time>2013-05-08T09:55:59Z</time>
      </trkpt>
      <trkpt lat="45.02751" lon="6.41011">
        <ele>2198</ele>
        <time>2013-05-08T09:56:00Z</time>
      </trkpt>
      <trkpt lat="45.02757" lon="6.41013">
        <ele>2195.6</ele>
        <time>2013-05-08T09:56:01Z</time>
      </trkpt>
      <trkpt lat="45.02761" lon="6.41011">
        <ele>2193.8</ele>
        <time>2013-05-08T09:56:02Z</time>
      </trkpt>
      <trkpt lat="45.02764" lon="6.41004">
        <ele>2190.5</ele>
        <time>2013-05-08T09:56:03Z</time>
      </trkpt>
      <trkpt lat="45.0277" lon="6.41002">
        <ele>2188.1</ele>
        <time>2013-05-08T09:56:04Z</time>
      </trkpt>
      <trkpt lat="45.02776" lon="6.41002">
        <ele>2184.9</ele>
        <time>2013-05-08T09:56:05Z</time>
      </trkpt>
      <trkpt lat="45.0278" lon="6.40998">
        <ele>2182.6</ele>
        <time>2013-05-08T09:56:06Z</time>
      </trkpt>
      <trkpt lat="45.02783" lon="6.40992">
        <ele>2178.8</ele>
        <time>2013-05-08T09:56:07Z</time>
      </trkpt>
      <trkpt lat="45.02788" lon="6.40988">
        <ele>2176</ele>
        <time>2013-05-08T09:56:08Z</time>
      </trkpt>
      <trkpt lat="45.02794" lon="6.40987">
        <ele>2173.9</ele>
        <time>2013-05-08T09:56:09Z</time>
      </trkpt>
      <trkpt lat="45.02799" lon="6.40982">
        <ele>2171.2</ele>
        <time>2013-05-08T09:56:10Z</time>
      </trkpt>
      <trkpt lat="45.028" lon="6.40969">
        <ele>2166.1</ele>
        <time>2013-05-08T09:56:12Z</time>
      </trkpt>
      <trkpt lat="45.02799" lon="6.40962">
        <ele>2163.7</ele>
        <time>2013-05-08T09:56:13Z</time>
      </trkpt>
      <trkpt lat="45.02798" lon="6.40955">
        <ele>2161.9</ele>
        <time>2013-05-08T09:56:14Z</time>
      </trkpt>
      <trkpt lat="45.02796" lon="6.40948">
        <ele>2160.2</ele>
        <time>2013-05-08T09:56:15Z</time>
      </trkpt>
      <trkpt lat="45.02793" lon="6.40941">
        <ele>2159</ele>
        <time>2013-05-08T09:56:16Z</time>
      </trkpt>
      <trkpt lat="45.02791" lon="6.40935">
        <ele>2157.7</ele>
        <time>2013-05-08T09:56:17Z</time>
      </trkpt>
      <trkpt lat="45.0279" lon="6.40927">
        <ele>2156.7</ele>
        <time>2013-05-08T09:56:18Z</time>
      </trkpt>
      <trkpt lat="45.02792" lon="6.4092">
        <ele>2155.5</ele>
        <time>2013-05-08T09:56:19Z</time>
      </trkpt>
      <trkpt lat="45.02796" lon="6.40917">
        <ele>2154.5</ele>
        <time>2013-05-08T09:56:20Z</time>
      </trkpt>
      <trkpt lat="45.02802" lon="6.40916">
        <ele>2153.8</ele>
        <time>2013-05-08T09:56:21Z</time>
      </trkpt>
      <trkpt lat="45.02807" lon="6.40912">
        <ele>2151.7</ele>
        <time>2013-05-08T09:56:22Z</time>
      </trkpt>
      <trkpt lat="45.02811" lon="6.40905">
        <ele>2150.1</ele>
        <time>2013-05-08T09:56:23Z</time>
      </trkpt>
      <trkpt lat="45.02812" lon="6.40896">
        <ele>2148</ele>
        <time>2013-05-08T09:56:24Z</time>
      </trkpt>
      <trkpt lat="45.02814" lon="6.40886">
        <ele>2146.4</ele>
        <time>2013-05-08T09:56:25Z</time>
      </trkpt>
      <trkpt lat="45.02818" lon="6.40878">
        <ele>2143.4</ele>
        <time>2013-05-08T09:56:26Z</time>
      </trkpt>
      <trkpt lat="45.02823" lon="6.40869">
        <ele>2141.2</ele>
        <time>2013-05-08T09:56:27Z</time>
      </trkpt>
      <trkpt lat="45.02827" lon="6.40856">
        <ele>2139.6</ele>
        <time>2013-05-08T09:56:28Z</time>
      </trkpt>
      <trkpt lat="45.02833" lon="6.40842">
        <ele>2137.2</ele>
        <time>2013-05-08T09:56:29Z</time>
      </trkpt>
      <trkpt lat="45.02839" lon="6.40827">
        <ele>2135.5</ele>
        <time>2013-05-08T09:56:30Z</time>
      </trkpt>
      <trkpt lat="45.02843" lon="6.4081">
        <ele>2132.8</ele>
        <time>2013-05-08T09:56:31Z</time>
      </trkpt>
      <trkpt lat="45.02847" lon="6.40792">
        <ele>2130.7</ele>
        <time>2013-05-08T09:56:32Z</time>
      </trkpt>
      <trkpt lat="45.02852" lon="6.40773">
        <ele>2126.9</ele>
        <time>2013-05-08T09:56:33Z</time>
      </trkpt>
      <trkpt lat="45.02859" lon="6.40756">
        <ele>2124.1</ele>
        <time>2013-05-08T09:56:34Z</time>
      </trkpt>
      <trkpt lat="45.02867" lon="6.40741">
        <ele>2121.9</ele>
        <time>2013-05-08T09:56:35Z</time>
      </trkpt>
      <trkpt lat="45.02876" lon="6.40728">
        <ele>2117.7</ele>
        <time>2013-05-08T09:56:36Z</time>
      </trkpt>
      <trkpt lat="45.02885" lon="6.40716">
        <ele>2114.5</ele>
        <time>2013-05-08T09:56:37Z</time>
      </trkpt>
      <trkpt lat="45.02895" lon="6.40704">
        <ele>2111.5</ele>
        <time>2013-05-08T09:56:38Z</time>
      </trkpt>
      <trkpt lat="45.02904" lon="6.40693">
        <ele>2109.3</ele>
        <time>2013-05-08T09:56:39Z</time>
      </trkpt>
      <trkpt lat="45.02912" lon="6.40682">
        <ele>2107.6</ele>
        <time>2013-05-08T09:56:40Z</time>
      </trkpt>
      <trkpt lat="45.0292" lon="6.40672">
        <ele>2105.8</ele>
        <time>2013-05-08T09:56:41Z</time>
      </trkpt>
      <trkpt lat="45.02927" lon="6.40663">
        <ele>2104.5</ele>
        <time>2013-05-08T09:56:42Z</time>
      </trkpt>
      <trkpt lat="45.02934" lon="6.40655">
        <ele>2103</ele>
        <time>2013-05-08T09:56:43Z</time>
      </trkpt>
      <trkpt lat="45.02939" lon="6.40649">
        <ele>2101.9</ele>
        <time>2013-05-08T09:56:44Z</time>
      </trkpt>
      <trkpt lat="45.02944" lon="6.40643">
        <ele>2100.8</ele>
        <time>2013-05-08T09:56:45Z</time>
      </trkpt>
      <trkpt lat="45.02949" lon="6.40638">
        <ele>2100.1</ele>
        <time>2013-05-08T09:56:46Z</time>
      </trkpt>
      <trkpt lat="45.02952" lon="6.40633">
        <ele>2099.5</ele>
        <time>2013-05-08T09:56:47Z</time>
      </trkpt>
      <trkpt lat="45.02958" lon="6.40625">
        <ele>2097.5</ele>
        <time>2013-05-08T09:56:49Z</time>
      </trkpt>
      <trkpt lat="45.02964" lon="6.40617">
        <ele>2096.5</ele>
        <time>2013-05-08T09:56:52Z</time>
      </trkpt>
      <trkpt lat="45.0297" lon="6.40611">
        <ele>2095.2</ele>
        <time>2013-05-08T09:56:55Z</time>
      </trkpt>
      <trkpt lat="45.02975" lon="6.40604">
        <ele>2093.9</ele>
        <time>2013-05-08T09:56:58Z</time>
      </trkpt>
      <trkpt lat="45.02981" lon="6.40597">
        <ele>2093.9</ele>
        <time>2013-05-08T09:57:01Z</time>
      </trkpt>
      <trkpt lat="45.02987" lon="6.4059">
        <ele>2093.4</ele>
        <time>2013-05-08T09:57:04Z</time>
      </trkpt>
      <trkpt lat="45.02992" lon="6.40582">
        <ele>2093.1</ele>
        <time>2013-05-08T09:57:07Z</time>
      </trkpt>
      <trkpt lat="45.02997" lon="6.40575">
        <ele>2092.6</ele>
        <time>2013-05-08T09:57:10Z</time>
      </trkpt>
      <trkpt lat="45.03002" lon="6.40569">
        <ele>2093</ele>
        <time>2013-05-08T09:57:13Z</time>
      </trkpt>
      <trkpt lat="45.03009" lon="6.40561">
        <ele>2091.5</ele>
        <time>2013-05-08T09:57:18Z</time>
      </trkpt>
      <trkpt lat="45.03015" lon="6.40552">
        <ele>2091.4</ele>
        <time>2013-05-08T09:57:23Z</time>
      </trkpt>
      <trkpt lat="45.0302" lon="6.40543">
        <ele>2090.9</ele>
        <time>2013-05-08T09:57:26Z</time>
      </trkpt>
      <trkpt lat="45.03024" lon="6.40535">
        <ele>2090.8</ele>
        <time>2013-05-08T09:57:28Z</time>
      </trkpt>
      <trkpt lat="45.03028" lon="6.40527">
        <ele>2090.4</ele>
        <time>2013-05-08T09:57:30Z</time>
      </trkpt>
      <trkpt lat="45.03031" lon="6.4052">
        <ele>2090.1</ele>
        <time>2013-05-08T09:57:32Z</time>
      </trkpt>
      <trkpt lat="45.03034" lon="6.40511">
        <ele>2089.4</ele>
        <time>2013-05-08T09:57:34Z</time>
      </trkpt>
      <trkpt lat="45.03038" lon="6.40503">
        <ele>2089.5</ele>
        <time>2013-05-08T09:57:36Z</time>
      </trkpt>
      <trkpt lat="45.03041" lon="6.40495">
        <ele>2089.4</ele>
        <time>2013-05-08T09:57:38Z</time>
      </trkpt>
      <trkpt lat="45.03045" lon="6.40487">
        <ele>2088.7</ele>
        <time>2013-05-08T09:57:40Z</time>
      </trkpt>
      <trkpt lat="45.03048" lon="6.40479">
        <ele>2087.9</ele>
        <time>2013-05-08T09:57:42Z</time>
      </trkpt>
      <trkpt lat="45.03052" lon="6.40471">
        <ele>2087.1</ele>
        <time>2013-05-08T09:57:44Z</time>
      </trkpt>
      <trkpt lat="45.03056" lon="6.40463">
        <ele>2085.9</ele>
        <time>2013-05-08T09:57:46Z</time>
      </trkpt>
      <trkpt lat="45.03061" lon="6.40455">
        <ele>2085.6</ele>
        <time>2013-05-08T09:57:48Z</time>
      </trkpt>
      <trkpt lat="45.03067" lon="6.40445">
        <ele>2084.9</ele>
        <time>2013-05-08T09:57:50Z</time>
      </trkpt>
      <trkpt lat="45.03069" lon="6.40439">
        <ele>2084.6</ele>
        <time>2013-05-08T09:57:51Z</time>
      </trkpt>
      <trkpt lat="45.03071" lon="6.40432">
        <ele>2084.2</ele>
        <time>2013-05-08T09:57:52Z</time>
      </trkpt>
      <trkpt lat="45.03074" lon="6.40425">
        <ele>2083.9</ele>
        <time>2013-05-08T09:57:53Z</time>
      </trkpt>
      <trkpt lat="45.03078" lon="6.40422">
        <ele>2083.2</ele>
        <time>2013-05-08T09:57:54Z</time>
      </trkpt>
      <trkpt lat="45.03083" lon="6.4042">
        <ele>2082.8</ele>
        <time>2013-05-08T09:57:55Z</time>
      </trkpt>
      <trkpt lat="45.03088" lon="6.40419">
        <ele>2081.9</ele>
        <time>2013-05-08T09:57:56Z</time>
      </trkpt>
      <trkpt lat="45.03093" lon="6.40417">
        <ele>2081.2</ele>
        <time>2013-05-08T09:57:57Z</time>
      </trkpt>
      <trkpt lat="45.03098" lon="6.40415">
        <ele>2080.6</ele>
        <time>2013-05-08T09:57:58Z</time>
      </trkpt>
      <trkpt lat="45.03107" lon="6.40415">
        <ele>2079.3</ele>
        <time>2013-05-08T09:58:00Z</time>
      </trkpt>
      <trkpt lat="45.03115" lon="6.40415">
        <ele>2077.7</ele>
        <time>2013-05-08T09:58:02Z</time>
      </trkpt>
      <trkpt lat="45.03121" lon="6.40412">
        <ele>2076.4</ele>
        <time>2013-05-08T09:58:04Z</time>
      </trkpt>
      <trkpt lat="45.03123" lon="6.40402">
        <ele>2075.2</ele>
        <time>2013-05-08T09:58:06Z</time>
      </trkpt>
      <trkpt lat="45.03129" lon="6.40394">
        <ele>2073.5</ele>
        <time>2013-05-08T09:58:09Z</time>
      </trkpt>
      <trkpt lat="45.03134" lon="6.4039">
        <ele>2072.4</ele>
        <time>2013-05-08T09:58:11Z</time>
      </trkpt>
      <trkpt lat="45.03142" lon="6.40386">
        <ele>2071.6</ele>
        <time>2013-05-08T09:58:13Z</time>
      </trkpt>
      <trkpt lat="45.03147" lon="6.40384">
        <ele>2071.4</ele>
        <time>2013-05-08T09:58:14Z</time>
      </trkpt>
      <trkpt lat="45.03153" lon="6.40382">
        <ele>2070.7</ele>
        <time>2013-05-08T09:58:15Z</time>
      </trkpt>
      <trkpt lat="45.03157" lon="6.40379">
        <ele>2070.1</ele>
        <time>2013-05-08T09:58:16Z</time>
      </trkpt>
      <trkpt lat="45.03162" lon="6.40376">
        <ele>2069.7</ele>
        <time>2013-05-08T09:58:17Z</time>
      </trkpt>
      <trkpt lat="45.03166" lon="6.40374">
        <ele>2069.1</ele>
        <time>2013-05-08T09:58:18Z</time>
      </trkpt>
      <trkpt lat="45.03171" lon="6.40372">
        <ele>2068.6</ele>
        <time>2013-05-08T09:58:19Z</time>
      </trkpt>
      <trkpt lat="45.03176" lon="6.40371">
        <ele>2068.1</ele>
        <time>2013-05-08T09:58:20Z</time>
      </trkpt>
      <trkpt lat="45.0318" lon="6.4037">
        <ele>2067.7</ele>
        <time>2013-05-08T09:58:21Z</time>
      </trkpt>
      <trkpt lat="45.03185" lon="6.40368">
        <ele>2067.4</ele>
        <time>2013-05-08T09:58:22Z</time>
      </trkpt>
      <trkpt lat="45.03193" lon="6.40365">
        <ele>2066.2</ele>
        <time>2013-05-08T09:58:24Z</time>
      </trkpt>
      <trkpt lat="45.032" lon="6.40361">
        <ele>2064.8</ele>
        <time>2013-05-08T09:58:26Z</time>
      </trkpt>
      <trkpt lat="45.03207" lon="6.40356">
        <ele>2064.6</ele>
        <time>2013-05-08T09:58:28Z</time>
      </trkpt>
      <trkpt lat="45.03213" lon="6.40354">
        <ele>2063.8</ele>
        <time>2013-05-08T09:58:30Z</time>
      </trkpt>
      <trkpt lat="45.03222" lon="6.40351">
        <ele>2063.4</ele>
        <time>2013-05-08T09:58:33Z</time>
      </trkpt>
      <trkpt lat="45.0323" lon="6.40347">
        <ele>2062.4</ele>
        <time>2013-05-08T09:58:36Z</time>
      </trkpt>
      <trkpt lat="45.03238" lon="6.40343">
        <ele>2061.6</ele>
        <time>2013-05-08T09:58:39Z</time>
      </trkpt>
      <trkpt lat="45.03246" lon="6.4034">
        <ele>2061.1</ele>
        <time>2013-05-08T09:58:42Z</time>
      </trkpt>
      <trkpt lat="45.03252" lon="6.40337">
        <ele>2060.5</ele>
        <time>2013-05-08T09:58:45Z</time>
      </trkpt>
      <trkpt lat="45.03261" lon="6.40334">
        <ele>2060.9</ele>
        <time>2013-05-08T09:58:49Z</time>
      </trkpt>
      <trkpt lat="45.03268" lon="6.40335">
        <ele>2060.1</ele>
        <time>2013-05-08T09:58:52Z</time>
      </trkpt>
      <trkpt lat="45.03277" lon="6.40338">
        <ele>2059.7</ele>
        <time>2013-05-08T09:58:55Z</time>
      </trkpt>
      <trkpt lat="45.03285" lon="6.40341">
        <ele>2059</ele>
        <time>2013-05-08T09:58:58Z</time>
      </trkpt>
      <trkpt lat="45.03291" lon="6.40344">
        <ele>2058.7</ele>
        <time>2013-05-08T09:59:00Z</time>
      </trkpt>
      <trkpt lat="45.03299" lon="6.40345">
        <ele>2058.2</ele>
        <time>2013-05-08T09:59:02Z</time>
      </trkpt>
      <trkpt lat="45.03305" lon="6.40342">
        <ele>2057.9</ele>
        <time>2013-05-08T09:59:04Z</time>
      </trkpt>
      <trkpt lat="45.03312" lon="6.40338">
        <ele>2057.2</ele>
        <time>2013-05-08T09:59:07Z</time>
      </trkpt>
      <trkpt lat="45.03319" lon="6.40333">
        <ele>2056.2</ele>
        <time>2013-05-08T09:59:10Z</time>
      </trkpt>
      <trkpt lat="45.03327" lon="6.40328">
        <ele>2054.3</ele>
        <time>2013-05-08T09:59:21Z</time>
      </trkpt>
      <trkpt lat="45.03335" lon="6.40333">
        <ele>2054.3</ele>
        <time>2013-05-08T10:01:36Z</time>
      </trkpt>
      <trkpt lat="45.03337" lon="6.40322">
        <ele>2053.9</ele>
        <time>2013-05-08T10:01:57Z</time>
      </trkpt>
      <trkpt lat="45.03332" lon="6.40311">
        <ele>2054.2</ele>
        <time>2013-05-08T10:02:37Z</time>
      </trkpt>
      <trkpt lat="45.03327" lon="6.40309">
        <ele>2054.4</ele>
        <time>2013-05-08T10:03:36Z</time>
      </trkpt>
      <trkpt lat="45.03332" lon="6.40311">
        <ele>2054.2</ele>
        <time>2013-05-08T10:02:37Z</time>
      </trkpt>
      <trkpt lat="45.03327" lon="6.40309">
        <ele>2054.3</ele>
        <time>2013-05-08T10:03:37Z</time>
      </trkpt>
      <trkpt lat="45.03327" lon="6.40309">
        <ele>2054.3</ele>
        <time>2013-05-08T10:03:37Z</time>
      </trkpt>
    </trkseg>
  </trk>
</gpx>